<?xml version="1.0" encoding="UTF-8" standalone="no" ?>
<gpx xmlns="http://www.topografix.com/GPX/1/1" xmlns:xsi="http://www.w3.org/2001/XMLSchema-instance" xsi:schemaLocation="http://www.topografix.com/GPX/1/1 http://www.topografix.com/GPX/1/1/gpx.xsd" version="1.1" creator="VisuGPX - https://www.visugpx.com">
  <metadata>
    <name>83 - M - Villecroze </name>
    <desc><![CDATA[83 - M - Villecroze : St Jean, Thuery, cascade St Jean  
2022-12-07
]]></desc>
  </metadata>
  <trk>
    <name><![CDATA[Villecroze sud  est  mercredi 2022-12-07-01]]></name>
    <trkseg>
      <trkpt lat="43.56558" lon="6.29357">
        <ele>313.9</ele>
        <time>2022-12-07T12:52:37Z</time>
      </trkpt>
      <trkpt lat="43.56558" lon="6.29357">
        <ele>313.9</ele>
        <time>2022-12-07T12:52:38Z</time>
      </trkpt>
      <trkpt lat="43.56566" lon="6.29349">
        <ele>314</ele>
        <time>2022-12-07T12:55:08Z</time>
      </trkpt>
      <trkpt lat="43.56565" lon="6.29336">
        <ele>314.1</ele>
        <time>2022-12-07T12:56:33Z</time>
      </trkpt>
      <trkpt lat="43.56574" lon="6.29338">
        <ele>314.5</ele>
        <time>2022-12-07T12:58:43Z</time>
      </trkpt>
      <trkpt lat="43.56582" lon="6.29344">
        <ele>315.3</ele>
        <time>2022-12-07T12:58:53Z</time>
      </trkpt>
      <trkpt lat="43.56591" lon="6.2935">
        <ele>315.4</ele>
        <time>2022-12-07T12:59:01Z</time>
      </trkpt>
      <trkpt lat="43.56601" lon="6.29354">
        <ele>315.9</ele>
        <time>2022-12-07T12:59:09Z</time>
      </trkpt>
      <trkpt lat="43.56611" lon="6.29355">
        <ele>316.7</ele>
        <time>2022-12-07T12:59:17Z</time>
      </trkpt>
      <trkpt lat="43.5662" lon="6.29348">
        <ele>316.6</ele>
        <time>2022-12-07T12:59:26Z</time>
      </trkpt>
      <trkpt lat="43.56627" lon="6.29339">
        <ele>316.3</ele>
        <time>2022-12-07T12:59:35Z</time>
      </trkpt>
      <trkpt lat="43.56634" lon="6.29331">
        <ele>315.9</ele>
        <time>2022-12-07T12:59:42Z</time>
      </trkpt>
      <trkpt lat="43.56642" lon="6.29322">
        <ele>315.7</ele>
        <time>2022-12-07T12:59:49Z</time>
      </trkpt>
      <trkpt lat="43.56649" lon="6.29313">
        <ele>315.5</ele>
        <time>2022-12-07T12:59:58Z</time>
      </trkpt>
      <trkpt lat="43.56656" lon="6.29305">
        <ele>315.7</ele>
        <time>2022-12-07T13:00:06Z</time>
      </trkpt>
      <trkpt lat="43.56662" lon="6.29294">
        <ele>315.4</ele>
        <time>2022-12-07T13:00:14Z</time>
      </trkpt>
      <trkpt lat="43.56663" lon="6.29282">
        <ele>315</ele>
        <time>2022-12-07T13:00:22Z</time>
      </trkpt>
      <trkpt lat="43.56658" lon="6.29272">
        <ele>314.8</ele>
        <time>2022-12-07T13:01:07Z</time>
      </trkpt>
      <trkpt lat="43.56658" lon="6.29284">
        <ele>315</ele>
        <time>2022-12-07T13:03:28Z</time>
      </trkpt>
      <trkpt lat="43.56651" lon="6.29293">
        <ele>315.2</ele>
        <time>2022-12-07T13:03:37Z</time>
      </trkpt>
      <trkpt lat="43.56647" lon="6.29305">
        <ele>315.2</ele>
        <time>2022-12-07T13:03:46Z</time>
      </trkpt>
      <trkpt lat="43.56645" lon="6.29317">
        <ele>315.6</ele>
        <time>2022-12-07T13:03:55Z</time>
      </trkpt>
      <trkpt lat="43.56638" lon="6.29326">
        <ele>316.5</ele>
        <time>2022-12-07T13:04:04Z</time>
      </trkpt>
      <trkpt lat="43.56632" lon="6.29336">
        <ele>316.8</ele>
        <time>2022-12-07T13:04:12Z</time>
      </trkpt>
      <trkpt lat="43.56624" lon="6.29345">
        <ele>317</ele>
        <time>2022-12-07T13:04:19Z</time>
      </trkpt>
      <trkpt lat="43.56616" lon="6.29354">
        <ele>317</ele>
        <time>2022-12-07T13:04:27Z</time>
      </trkpt>
      <trkpt lat="43.56608" lon="6.29359">
        <ele>317.1</ele>
        <time>2022-12-07T13:04:35Z</time>
      </trkpt>
      <trkpt lat="43.56599" lon="6.29353">
        <ele>316.6</ele>
        <time>2022-12-07T13:04:43Z</time>
      </trkpt>
      <trkpt lat="43.5659" lon="6.2935">
        <ele>316.3</ele>
        <time>2022-12-07T13:04:52Z</time>
      </trkpt>
      <trkpt lat="43.56581" lon="6.29346">
        <ele>316.2</ele>
        <time>2022-12-07T13:04:59Z</time>
      </trkpt>
      <trkpt lat="43.56573" lon="6.2934">
        <ele>316.2</ele>
        <time>2022-12-07T13:05:06Z</time>
      </trkpt>
      <trkpt lat="43.56565" lon="6.29345">
        <ele>315</ele>
        <time>2022-12-07T13:05:14Z</time>
      </trkpt>
      <trkpt lat="43.56567" lon="6.29358">
        <ele>315</ele>
        <time>2022-12-07T13:05:23Z</time>
      </trkpt>
      <trkpt lat="43.56571" lon="6.2937">
        <ele>315.5</ele>
        <time>2022-12-07T13:05:31Z</time>
      </trkpt>
      <trkpt lat="43.56574" lon="6.29382">
        <ele>316.1</ele>
        <time>2022-12-07T13:05:39Z</time>
      </trkpt>
      <trkpt lat="43.56575" lon="6.29396">
        <ele>317</ele>
        <time>2022-12-07T13:05:47Z</time>
      </trkpt>
      <trkpt lat="43.56578" lon="6.29408">
        <ele>317.4</ele>
        <time>2022-12-07T13:05:54Z</time>
      </trkpt>
      <trkpt lat="43.56576" lon="6.29422">
        <ele>318.1</ele>
        <time>2022-12-07T13:06:03Z</time>
      </trkpt>
      <trkpt lat="43.5657" lon="6.29431">
        <ele>318.2</ele>
        <time>2022-12-07T13:06:11Z</time>
      </trkpt>
      <trkpt lat="43.56566" lon="6.29444">
        <ele>318.6</ele>
        <time>2022-12-07T13:06:19Z</time>
      </trkpt>
      <trkpt lat="43.56561" lon="6.29454">
        <ele>318.8</ele>
        <time>2022-12-07T13:06:27Z</time>
      </trkpt>
      <trkpt lat="43.56554" lon="6.29464">
        <ele>319.1</ele>
        <time>2022-12-07T13:06:35Z</time>
      </trkpt>
      <trkpt lat="43.56548" lon="6.29474">
        <ele>319.4</ele>
        <time>2022-12-07T13:06:43Z</time>
      </trkpt>
      <trkpt lat="43.56543" lon="6.29485">
        <ele>319.4</ele>
        <time>2022-12-07T13:06:51Z</time>
      </trkpt>
      <trkpt lat="43.56536" lon="6.29494">
        <ele>319.9</ele>
        <time>2022-12-07T13:07:00Z</time>
      </trkpt>
      <trkpt lat="43.56527" lon="6.29498">
        <ele>320.4</ele>
        <time>2022-12-07T13:07:07Z</time>
      </trkpt>
      <trkpt lat="43.56521" lon="6.29509">
        <ele>321.1</ele>
        <time>2022-12-07T13:07:16Z</time>
      </trkpt>
      <trkpt lat="43.56514" lon="6.29518">
        <ele>321.7</ele>
        <time>2022-12-07T13:07:23Z</time>
      </trkpt>
      <trkpt lat="43.56508" lon="6.29529">
        <ele>321.9</ele>
        <time>2022-12-07T13:07:30Z</time>
      </trkpt>
      <trkpt lat="43.56503" lon="6.29542">
        <ele>322.3</ele>
        <time>2022-12-07T13:07:36Z</time>
      </trkpt>
      <trkpt lat="43.56499" lon="6.29554">
        <ele>322.5</ele>
        <time>2022-12-07T13:07:44Z</time>
      </trkpt>
      <trkpt lat="43.56493" lon="6.29565">
        <ele>322.8</ele>
        <time>2022-12-07T13:07:51Z</time>
      </trkpt>
      <trkpt lat="43.5649" lon="6.29578">
        <ele>323</ele>
        <time>2022-12-07T13:07:58Z</time>
      </trkpt>
      <trkpt lat="43.56486" lon="6.2959">
        <ele>323.4</ele>
        <time>2022-12-07T13:08:07Z</time>
      </trkpt>
      <trkpt lat="43.56479" lon="6.29601">
        <ele>324</ele>
        <time>2022-12-07T13:08:16Z</time>
      </trkpt>
      <trkpt lat="43.56473" lon="6.29611">
        <ele>324.6</ele>
        <time>2022-12-07T13:08:25Z</time>
      </trkpt>
      <trkpt lat="43.56467" lon="6.29623">
        <ele>324.9</ele>
        <time>2022-12-07T13:08:33Z</time>
      </trkpt>
      <trkpt lat="43.56467" lon="6.29635">
        <ele>325.4</ele>
        <time>2022-12-07T13:08:41Z</time>
      </trkpt>
      <trkpt lat="43.56465" lon="6.29649">
        <ele>325.9</ele>
        <time>2022-12-07T13:08:47Z</time>
      </trkpt>
      <trkpt lat="43.56461" lon="6.29661">
        <ele>326.7</ele>
        <time>2022-12-07T13:08:55Z</time>
      </trkpt>
      <trkpt lat="43.56458" lon="6.29675">
        <ele>327.6</ele>
        <time>2022-12-07T13:09:03Z</time>
      </trkpt>
      <trkpt lat="43.56454" lon="6.29686">
        <ele>328.8</ele>
        <time>2022-12-07T13:09:11Z</time>
      </trkpt>
      <trkpt lat="43.56452" lon="6.29699">
        <ele>329.4</ele>
        <time>2022-12-07T13:09:18Z</time>
      </trkpt>
      <trkpt lat="43.5645" lon="6.29712">
        <ele>329.9</ele>
        <time>2022-12-07T13:09:25Z</time>
      </trkpt>
      <trkpt lat="43.56447" lon="6.29724">
        <ele>330.6</ele>
        <time>2022-12-07T13:09:34Z</time>
      </trkpt>
      <trkpt lat="43.56442" lon="6.29736">
        <ele>331.6</ele>
        <time>2022-12-07T13:09:42Z</time>
      </trkpt>
      <trkpt lat="43.56437" lon="6.29747">
        <ele>332.4</ele>
        <time>2022-12-07T13:09:49Z</time>
      </trkpt>
      <trkpt lat="43.56437" lon="6.2976">
        <ele>333.4</ele>
        <time>2022-12-07T13:09:56Z</time>
      </trkpt>
      <trkpt lat="43.56439" lon="6.29772">
        <ele>334.2</ele>
        <time>2022-12-07T13:10:14Z</time>
      </trkpt>
      <trkpt lat="43.5644" lon="6.29786">
        <ele>334.7</ele>
        <time>2022-12-07T13:10:23Z</time>
      </trkpt>
      <trkpt lat="43.56437" lon="6.29798">
        <ele>334.7</ele>
        <time>2022-12-07T13:10:31Z</time>
      </trkpt>
      <trkpt lat="43.56433" lon="6.2981">
        <ele>335.3</ele>
        <time>2022-12-07T13:10:39Z</time>
      </trkpt>
      <trkpt lat="43.56427" lon="6.29822">
        <ele>335.6</ele>
        <time>2022-12-07T13:10:47Z</time>
      </trkpt>
      <trkpt lat="43.56423" lon="6.29833">
        <ele>335.7</ele>
        <time>2022-12-07T13:10:55Z</time>
      </trkpt>
      <trkpt lat="43.56418" lon="6.29844">
        <ele>336</ele>
        <time>2022-12-07T13:11:03Z</time>
      </trkpt>
      <trkpt lat="43.56413" lon="6.29855">
        <ele>336.7</ele>
        <time>2022-12-07T13:11:12Z</time>
      </trkpt>
      <trkpt lat="43.56408" lon="6.29867">
        <ele>336.9</ele>
        <time>2022-12-07T13:11:20Z</time>
      </trkpt>
      <trkpt lat="43.56401" lon="6.29876">
        <ele>337.3</ele>
        <time>2022-12-07T13:11:28Z</time>
      </trkpt>
      <trkpt lat="43.56396" lon="6.29888">
        <ele>337.8</ele>
        <time>2022-12-07T13:11:37Z</time>
      </trkpt>
      <trkpt lat="43.56392" lon="6.29899">
        <ele>338</ele>
        <time>2022-12-07T13:11:45Z</time>
      </trkpt>
      <trkpt lat="43.56386" lon="6.29909">
        <ele>338.5</ele>
        <time>2022-12-07T13:11:53Z</time>
      </trkpt>
      <trkpt lat="43.56382" lon="6.2992">
        <ele>338.8</ele>
        <time>2022-12-07T13:12:00Z</time>
      </trkpt>
      <trkpt lat="43.56376" lon="6.2993">
        <ele>339</ele>
        <time>2022-12-07T13:12:08Z</time>
      </trkpt>
      <trkpt lat="43.5637" lon="6.2994">
        <ele>339.8</ele>
        <time>2022-12-07T13:12:18Z</time>
      </trkpt>
      <trkpt lat="43.56364" lon="6.29949">
        <ele>340.3</ele>
        <time>2022-12-07T13:12:26Z</time>
      </trkpt>
      <trkpt lat="43.56359" lon="6.29961">
        <ele>340.9</ele>
        <time>2022-12-07T13:12:35Z</time>
      </trkpt>
      <trkpt lat="43.56355" lon="6.29973">
        <ele>341.4</ele>
        <time>2022-12-07T13:12:43Z</time>
      </trkpt>
      <trkpt lat="43.56354" lon="6.29986">
        <ele>342.6</ele>
        <time>2022-12-07T13:12:51Z</time>
      </trkpt>
      <trkpt lat="43.56351" lon="6.29997">
        <ele>343.1</ele>
        <time>2022-12-07T13:13:03Z</time>
      </trkpt>
      <trkpt lat="43.56346" lon="6.30009">
        <ele>343.2</ele>
        <time>2022-12-07T13:14:10Z</time>
      </trkpt>
      <trkpt lat="43.56342" lon="6.3002">
        <ele>343.3</ele>
        <time>2022-12-07T13:14:20Z</time>
      </trkpt>
      <trkpt lat="43.56335" lon="6.3003">
        <ele>343.7</ele>
        <time>2022-12-07T13:14:28Z</time>
      </trkpt>
      <trkpt lat="43.56332" lon="6.30042">
        <ele>344.2</ele>
        <time>2022-12-07T13:14:37Z</time>
      </trkpt>
      <trkpt lat="43.56334" lon="6.30055">
        <ele>345.6</ele>
        <time>2022-12-07T13:14:47Z</time>
      </trkpt>
      <trkpt lat="43.56334" lon="6.30069">
        <ele>347.1</ele>
        <time>2022-12-07T13:14:58Z</time>
      </trkpt>
      <trkpt lat="43.56339" lon="6.3008">
        <ele>347.8</ele>
        <time>2022-12-07T13:15:04Z</time>
      </trkpt>
      <trkpt lat="43.56344" lon="6.30091">
        <ele>349.5</ele>
        <time>2022-12-07T13:15:12Z</time>
      </trkpt>
      <trkpt lat="43.56349" lon="6.30102">
        <ele>350.7</ele>
        <time>2022-12-07T13:15:48Z</time>
      </trkpt>
      <trkpt lat="43.56355" lon="6.30112">
        <ele>352.1</ele>
        <time>2022-12-07T13:15:59Z</time>
      </trkpt>
      <trkpt lat="43.56359" lon="6.30124">
        <ele>353.6</ele>
        <time>2022-12-07T13:16:12Z</time>
      </trkpt>
      <trkpt lat="43.56363" lon="6.30136">
        <ele>354.5</ele>
        <time>2022-12-07T13:16:21Z</time>
      </trkpt>
      <trkpt lat="43.56363" lon="6.30149">
        <ele>355.7</ele>
        <time>2022-12-07T13:16:30Z</time>
      </trkpt>
      <trkpt lat="43.56356" lon="6.30158">
        <ele>356.6</ele>
        <time>2022-12-07T13:16:40Z</time>
      </trkpt>
      <trkpt lat="43.5635" lon="6.30168">
        <ele>357.8</ele>
        <time>2022-12-07T13:16:50Z</time>
      </trkpt>
      <trkpt lat="43.56345" lon="6.3018">
        <ele>358.7</ele>
        <time>2022-12-07T13:16:58Z</time>
      </trkpt>
      <trkpt lat="43.56337" lon="6.30188">
        <ele>359.2</ele>
        <time>2022-12-07T13:17:06Z</time>
      </trkpt>
      <trkpt lat="43.56331" lon="6.30197">
        <ele>360</ele>
        <time>2022-12-07T13:17:14Z</time>
      </trkpt>
      <trkpt lat="43.56322" lon="6.30201">
        <ele>359.9</ele>
        <time>2022-12-07T13:17:23Z</time>
      </trkpt>
      <trkpt lat="43.56313" lon="6.30203">
        <ele>358.9</ele>
        <time>2022-12-07T13:17:34Z</time>
      </trkpt>
      <trkpt lat="43.56303" lon="6.30205">
        <ele>358.4</ele>
        <time>2022-12-07T13:17:41Z</time>
      </trkpt>
      <trkpt lat="43.56294" lon="6.30207">
        <ele>358.2</ele>
        <time>2022-12-07T13:17:48Z</time>
      </trkpt>
      <trkpt lat="43.56285" lon="6.30213">
        <ele>358.3</ele>
        <time>2022-12-07T13:17:57Z</time>
      </trkpt>
      <trkpt lat="43.56276" lon="6.30218">
        <ele>358.5</ele>
        <time>2022-12-07T13:18:05Z</time>
      </trkpt>
      <trkpt lat="43.56267" lon="6.30222">
        <ele>358.7</ele>
        <time>2022-12-07T13:18:14Z</time>
      </trkpt>
      <trkpt lat="43.56258" lon="6.30223">
        <ele>358.6</ele>
        <time>2022-12-07T13:18:22Z</time>
      </trkpt>
      <trkpt lat="43.56249" lon="6.30226">
        <ele>358.8</ele>
        <time>2022-12-07T13:18:30Z</time>
      </trkpt>
      <trkpt lat="43.56239" lon="6.30229">
        <ele>359.1</ele>
        <time>2022-12-07T13:18:38Z</time>
      </trkpt>
      <trkpt lat="43.56229" lon="6.30231">
        <ele>359.2</ele>
        <time>2022-12-07T13:18:45Z</time>
      </trkpt>
      <trkpt lat="43.5622" lon="6.30234">
        <ele>359.6</ele>
        <time>2022-12-07T13:18:53Z</time>
      </trkpt>
      <trkpt lat="43.5621" lon="6.30236">
        <ele>359.4</ele>
        <time>2022-12-07T13:19:02Z</time>
      </trkpt>
      <trkpt lat="43.562" lon="6.30232">
        <ele>360.4</ele>
        <time>2022-12-07T13:19:09Z</time>
      </trkpt>
      <trkpt lat="43.56191" lon="6.30228">
        <ele>361.2</ele>
        <time>2022-12-07T13:19:16Z</time>
      </trkpt>
      <trkpt lat="43.56182" lon="6.30232">
        <ele>361</ele>
        <time>2022-12-07T13:19:23Z</time>
      </trkpt>
      <trkpt lat="43.56172" lon="6.30234">
        <ele>360.4</ele>
        <time>2022-12-07T13:19:31Z</time>
      </trkpt>
      <trkpt lat="43.56165" lon="6.30242">
        <ele>359.7</ele>
        <time>2022-12-07T13:19:38Z</time>
      </trkpt>
      <trkpt lat="43.56157" lon="6.30251">
        <ele>359.2</ele>
        <time>2022-12-07T13:19:46Z</time>
      </trkpt>
      <trkpt lat="43.56151" lon="6.30261">
        <ele>358.8</ele>
        <time>2022-12-07T13:19:54Z</time>
      </trkpt>
      <trkpt lat="43.56146" lon="6.30273">
        <ele>358.4</ele>
        <time>2022-12-07T13:20:01Z</time>
      </trkpt>
      <trkpt lat="43.5614" lon="6.30284">
        <ele>358.5</ele>
        <time>2022-12-07T13:20:08Z</time>
      </trkpt>
      <trkpt lat="43.56135" lon="6.30296">
        <ele>358.2</ele>
        <time>2022-12-07T13:20:15Z</time>
      </trkpt>
      <trkpt lat="43.56132" lon="6.30308">
        <ele>358.2</ele>
        <time>2022-12-07T13:20:22Z</time>
      </trkpt>
      <trkpt lat="43.56129" lon="6.3032">
        <ele>358.4</ele>
        <time>2022-12-07T13:20:29Z</time>
      </trkpt>
      <trkpt lat="43.56127" lon="6.30333">
        <ele>358.6</ele>
        <time>2022-12-07T13:20:36Z</time>
      </trkpt>
      <trkpt lat="43.56127" lon="6.30347">
        <ele>358.9</ele>
        <time>2022-12-07T13:20:46Z</time>
      </trkpt>
      <trkpt lat="43.56127" lon="6.30361">
        <ele>358.7</ele>
        <time>2022-12-07T13:20:55Z</time>
      </trkpt>
      <trkpt lat="43.56125" lon="6.30373">
        <ele>359</ele>
        <time>2022-12-07T13:21:02Z</time>
      </trkpt>
      <trkpt lat="43.56125" lon="6.30386">
        <ele>358.9</ele>
        <time>2022-12-07T13:21:09Z</time>
      </trkpt>
      <trkpt lat="43.56124" lon="6.30399">
        <ele>358.9</ele>
        <time>2022-12-07T13:21:15Z</time>
      </trkpt>
      <trkpt lat="43.56122" lon="6.30411">
        <ele>358.9</ele>
        <time>2022-12-07T13:21:21Z</time>
      </trkpt>
      <trkpt lat="43.56119" lon="6.30425">
        <ele>359.1</ele>
        <time>2022-12-07T13:21:29Z</time>
      </trkpt>
      <trkpt lat="43.56117" lon="6.30438">
        <ele>359.3</ele>
        <time>2022-12-07T13:21:37Z</time>
      </trkpt>
      <trkpt lat="43.56114" lon="6.3045">
        <ele>359.2</ele>
        <time>2022-12-07T13:21:46Z</time>
      </trkpt>
      <trkpt lat="43.5611" lon="6.30462">
        <ele>359.6</ele>
        <time>2022-12-07T13:21:54Z</time>
      </trkpt>
      <trkpt lat="43.56104" lon="6.30472">
        <ele>359.8</ele>
        <time>2022-12-07T13:22:01Z</time>
      </trkpt>
      <trkpt lat="43.561" lon="6.30484">
        <ele>360.1</ele>
        <time>2022-12-07T13:22:08Z</time>
      </trkpt>
      <trkpt lat="43.56096" lon="6.30496">
        <ele>360.3</ele>
        <time>2022-12-07T13:22:16Z</time>
      </trkpt>
      <trkpt lat="43.56094" lon="6.3051">
        <ele>360.3</ele>
        <time>2022-12-07T13:22:23Z</time>
      </trkpt>
      <trkpt lat="43.56089" lon="6.30522">
        <ele>361.1</ele>
        <time>2022-12-07T13:22:31Z</time>
      </trkpt>
      <trkpt lat="43.56087" lon="6.30534">
        <ele>361.5</ele>
        <time>2022-12-07T13:22:40Z</time>
      </trkpt>
      <trkpt lat="43.56083" lon="6.30547">
        <ele>361.5</ele>
        <time>2022-12-07T13:22:48Z</time>
      </trkpt>
      <trkpt lat="43.56081" lon="6.3056">
        <ele>362.1</ele>
        <time>2022-12-07T13:22:56Z</time>
      </trkpt>
      <trkpt lat="43.5608" lon="6.30573">
        <ele>362.9</ele>
        <time>2022-12-07T13:23:03Z</time>
      </trkpt>
      <trkpt lat="43.56079" lon="6.30586">
        <ele>363.7</ele>
        <time>2022-12-07T13:23:10Z</time>
      </trkpt>
      <trkpt lat="43.56075" lon="6.30598">
        <ele>364.9</ele>
        <time>2022-12-07T13:23:18Z</time>
      </trkpt>
      <trkpt lat="43.56071" lon="6.30611">
        <ele>365.8</ele>
        <time>2022-12-07T13:23:25Z</time>
      </trkpt>
      <trkpt lat="43.56068" lon="6.30624">
        <ele>366.9</ele>
        <time>2022-12-07T13:23:33Z</time>
      </trkpt>
      <trkpt lat="43.56068" lon="6.30637">
        <ele>367.9</ele>
        <time>2022-12-07T13:23:42Z</time>
      </trkpt>
      <trkpt lat="43.56066" lon="6.3065">
        <ele>368.3</ele>
        <time>2022-12-07T13:23:49Z</time>
      </trkpt>
      <trkpt lat="43.56062" lon="6.30662">
        <ele>368.9</ele>
        <time>2022-12-07T13:23:57Z</time>
      </trkpt>
      <trkpt lat="43.56058" lon="6.30674">
        <ele>369.1</ele>
        <time>2022-12-07T13:24:04Z</time>
      </trkpt>
      <trkpt lat="43.56053" lon="6.30686">
        <ele>369.1</ele>
        <time>2022-12-07T13:24:12Z</time>
      </trkpt>
      <trkpt lat="43.5605" lon="6.30698">
        <ele>369.2</ele>
        <time>2022-12-07T13:24:19Z</time>
      </trkpt>
      <trkpt lat="43.56046" lon="6.3071">
        <ele>369.5</ele>
        <time>2022-12-07T13:24:27Z</time>
      </trkpt>
      <trkpt lat="43.56042" lon="6.30722">
        <ele>369.7</ele>
        <time>2022-12-07T13:24:35Z</time>
      </trkpt>
      <trkpt lat="43.56039" lon="6.30734">
        <ele>370</ele>
        <time>2022-12-07T13:24:42Z</time>
      </trkpt>
      <trkpt lat="43.56035" lon="6.30746">
        <ele>371</ele>
        <time>2022-12-07T13:24:51Z</time>
      </trkpt>
      <trkpt lat="43.56033" lon="6.30758">
        <ele>370.9</ele>
        <time>2022-12-07T13:24:59Z</time>
      </trkpt>
      <trkpt lat="43.5603" lon="6.30772">
        <ele>370.6</ele>
        <time>2022-12-07T13:25:07Z</time>
      </trkpt>
      <trkpt lat="43.56025" lon="6.30784">
        <ele>370.5</ele>
        <time>2022-12-07T13:25:14Z</time>
      </trkpt>
      <trkpt lat="43.56021" lon="6.30797">
        <ele>370</ele>
        <time>2022-12-07T13:25:21Z</time>
      </trkpt>
      <trkpt lat="43.56021" lon="6.3081">
        <ele>370.2</ele>
        <time>2022-12-07T13:25:28Z</time>
      </trkpt>
      <trkpt lat="43.5602" lon="6.30823">
        <ele>370.5</ele>
        <time>2022-12-07T13:25:35Z</time>
      </trkpt>
      <trkpt lat="43.5602" lon="6.30837">
        <ele>370.3</ele>
        <time>2022-12-07T13:25:43Z</time>
      </trkpt>
      <trkpt lat="43.5602" lon="6.30849">
        <ele>370.9</ele>
        <time>2022-12-07T13:25:50Z</time>
      </trkpt>
      <trkpt lat="43.56023" lon="6.30861">
        <ele>371.5</ele>
        <time>2022-12-07T13:25:58Z</time>
      </trkpt>
      <trkpt lat="43.56028" lon="6.30874">
        <ele>372.3</ele>
        <time>2022-12-07T13:26:07Z</time>
      </trkpt>
      <trkpt lat="43.56031" lon="6.30887">
        <ele>373.2</ele>
        <time>2022-12-07T13:26:15Z</time>
      </trkpt>
      <trkpt lat="43.56034" lon="6.309">
        <ele>374.1</ele>
        <time>2022-12-07T13:26:24Z</time>
      </trkpt>
      <trkpt lat="43.56038" lon="6.30912">
        <ele>374.3</ele>
        <time>2022-12-07T13:26:32Z</time>
      </trkpt>
      <trkpt lat="43.56042" lon="6.30924">
        <ele>374.5</ele>
        <time>2022-12-07T13:26:40Z</time>
      </trkpt>
      <trkpt lat="43.56046" lon="6.30936">
        <ele>374.7</ele>
        <time>2022-12-07T13:26:48Z</time>
      </trkpt>
      <trkpt lat="43.5605" lon="6.30948">
        <ele>374.5</ele>
        <time>2022-12-07T13:26:56Z</time>
      </trkpt>
      <trkpt lat="43.56055" lon="6.30961">
        <ele>374.5</ele>
        <time>2022-12-07T13:27:03Z</time>
      </trkpt>
      <trkpt lat="43.56055" lon="6.30974">
        <ele>374.3</ele>
        <time>2022-12-07T13:27:09Z</time>
      </trkpt>
      <trkpt lat="43.56059" lon="6.30987">
        <ele>374</ele>
        <time>2022-12-07T13:27:16Z</time>
      </trkpt>
      <trkpt lat="43.56064" lon="6.30998">
        <ele>374.1</ele>
        <time>2022-12-07T13:27:23Z</time>
      </trkpt>
      <trkpt lat="43.56069" lon="6.31009">
        <ele>374.5</ele>
        <time>2022-12-07T13:27:30Z</time>
      </trkpt>
      <trkpt lat="43.56069" lon="6.31023">
        <ele>375.1</ele>
        <time>2022-12-07T13:27:36Z</time>
      </trkpt>
      <trkpt lat="43.56073" lon="6.31036">
        <ele>376.1</ele>
        <time>2022-12-07T13:27:43Z</time>
      </trkpt>
      <trkpt lat="43.56078" lon="6.31046">
        <ele>377</ele>
        <time>2022-12-07T13:27:49Z</time>
      </trkpt>
      <trkpt lat="43.56083" lon="6.31057">
        <ele>377.3</ele>
        <time>2022-12-07T13:27:55Z</time>
      </trkpt>
      <trkpt lat="43.56087" lon="6.3107">
        <ele>377.2</ele>
        <time>2022-12-07T13:28:02Z</time>
      </trkpt>
      <trkpt lat="43.5609" lon="6.31082">
        <ele>377.6</ele>
        <time>2022-12-07T13:28:12Z</time>
      </trkpt>
      <trkpt lat="43.5609" lon="6.31095">
        <ele>378</ele>
        <time>2022-12-07T13:28:20Z</time>
      </trkpt>
      <trkpt lat="43.56091" lon="6.31109">
        <ele>378.6</ele>
        <time>2022-12-07T13:28:28Z</time>
      </trkpt>
      <trkpt lat="43.56096" lon="6.31121">
        <ele>379.1</ele>
        <time>2022-12-07T13:28:36Z</time>
      </trkpt>
      <trkpt lat="43.56102" lon="6.31133">
        <ele>378.9</ele>
        <time>2022-12-07T13:28:43Z</time>
      </trkpt>
      <trkpt lat="43.56106" lon="6.31144">
        <ele>378.8</ele>
        <time>2022-12-07T13:28:49Z</time>
      </trkpt>
      <trkpt lat="43.56113" lon="6.31152">
        <ele>379</ele>
        <time>2022-12-07T13:28:58Z</time>
      </trkpt>
      <trkpt lat="43.56122" lon="6.31158">
        <ele>379.3</ele>
        <time>2022-12-07T13:29:09Z</time>
      </trkpt>
      <trkpt lat="43.56129" lon="6.31167">
        <ele>380.1</ele>
        <time>2022-12-07T13:32:26Z</time>
      </trkpt>
      <trkpt lat="43.56132" lon="6.31179">
        <ele>380.5</ele>
        <time>2022-12-07T13:32:36Z</time>
      </trkpt>
      <trkpt lat="43.56134" lon="6.31192">
        <ele>381.3</ele>
        <time>2022-12-07T13:32:46Z</time>
      </trkpt>
      <trkpt lat="43.56132" lon="6.31205">
        <ele>381.5</ele>
        <time>2022-12-07T13:32:57Z</time>
      </trkpt>
      <trkpt lat="43.5613" lon="6.31217">
        <ele>381.9</ele>
        <time>2022-12-07T13:33:06Z</time>
      </trkpt>
      <trkpt lat="43.56129" lon="6.31229">
        <ele>382.3</ele>
        <time>2022-12-07T13:33:16Z</time>
      </trkpt>
      <trkpt lat="43.56136" lon="6.31237">
        <ele>382.8</ele>
        <time>2022-12-07T13:33:51Z</time>
      </trkpt>
      <trkpt lat="43.56145" lon="6.31241">
        <ele>383.2</ele>
        <time>2022-12-07T13:34:00Z</time>
      </trkpt>
      <trkpt lat="43.56153" lon="6.31248">
        <ele>383.6</ele>
        <time>2022-12-07T13:34:09Z</time>
      </trkpt>
      <trkpt lat="43.56155" lon="6.31261">
        <ele>384.6</ele>
        <time>2022-12-07T13:34:18Z</time>
      </trkpt>
      <trkpt lat="43.56153" lon="6.31274">
        <ele>384.7</ele>
        <time>2022-12-07T13:34:26Z</time>
      </trkpt>
      <trkpt lat="43.56153" lon="6.31287">
        <ele>384.8</ele>
        <time>2022-12-07T13:34:34Z</time>
      </trkpt>
      <trkpt lat="43.56154" lon="6.313">
        <ele>385.4</ele>
        <time>2022-12-07T13:34:43Z</time>
      </trkpt>
      <trkpt lat="43.56148" lon="6.31309">
        <ele>383.2</ele>
        <time>2022-12-07T13:35:10Z</time>
      </trkpt>
      <trkpt lat="43.56142" lon="6.31319">
        <ele>379.2</ele>
        <time>2022-12-07T13:35:31Z</time>
      </trkpt>
      <trkpt lat="43.56143" lon="6.31331">
        <ele>376.4</ele>
        <time>2022-12-07T13:35:49Z</time>
      </trkpt>
      <trkpt lat="43.5615" lon="6.3134">
        <ele>376.9</ele>
        <time>2022-12-07T13:36:01Z</time>
      </trkpt>
      <trkpt lat="43.56156" lon="6.3135">
        <ele>377.3</ele>
        <time>2022-12-07T13:36:13Z</time>
      </trkpt>
      <trkpt lat="43.5616" lon="6.31362">
        <ele>377.8</ele>
        <time>2022-12-07T13:36:24Z</time>
      </trkpt>
      <trkpt lat="43.56153" lon="6.31354">
        <ele>376.3</ele>
        <time>2022-12-07T13:37:12Z</time>
      </trkpt>
      <trkpt lat="43.56145" lon="6.31346">
        <ele>375.2</ele>
        <time>2022-12-07T13:37:23Z</time>
      </trkpt>
      <trkpt lat="43.5615" lon="6.31358">
        <ele>375.6</ele>
        <time>2022-12-07T13:38:41Z</time>
      </trkpt>
      <trkpt lat="43.56153" lon="6.31371">
        <ele>376.6</ele>
        <time>2022-12-07T13:38:52Z</time>
      </trkpt>
      <trkpt lat="43.56161" lon="6.31379">
        <ele>376.8</ele>
        <time>2022-12-07T13:39:01Z</time>
      </trkpt>
      <trkpt lat="43.56169" lon="6.31385">
        <ele>377.2</ele>
        <time>2022-12-07T13:41:44Z</time>
      </trkpt>
      <trkpt lat="43.56162" lon="6.31376">
        <ele>377.5</ele>
        <time>2022-12-07T13:42:39Z</time>
      </trkpt>
      <trkpt lat="43.56159" lon="6.31363">
        <ele>376.8</ele>
        <time>2022-12-07T13:42:48Z</time>
      </trkpt>
      <trkpt lat="43.56151" lon="6.31356">
        <ele>376.2</ele>
        <time>2022-12-07T13:42:54Z</time>
      </trkpt>
      <trkpt lat="43.56142" lon="6.31354">
        <ele>374.5</ele>
        <time>2022-12-07T13:43:03Z</time>
      </trkpt>
      <trkpt lat="43.56142" lon="6.31368">
        <ele>374.3</ele>
        <time>2022-12-07T13:43:14Z</time>
      </trkpt>
      <trkpt lat="43.56143" lon="6.3138">
        <ele>374.2</ele>
        <time>2022-12-07T13:43:29Z</time>
      </trkpt>
      <trkpt lat="43.56143" lon="6.31393">
        <ele>374.1</ele>
        <time>2022-12-07T13:43:38Z</time>
      </trkpt>
      <trkpt lat="43.56145" lon="6.31406">
        <ele>374.5</ele>
        <time>2022-12-07T13:43:45Z</time>
      </trkpt>
      <trkpt lat="43.56147" lon="6.31419">
        <ele>374.7</ele>
        <time>2022-12-07T13:43:54Z</time>
      </trkpt>
      <trkpt lat="43.56139" lon="6.31425">
        <ele>374.9</ele>
        <time>2022-12-07T13:44:03Z</time>
      </trkpt>
      <trkpt lat="43.5613" lon="6.31426">
        <ele>375</ele>
        <time>2022-12-07T13:44:13Z</time>
      </trkpt>
      <trkpt lat="43.56121" lon="6.31429">
        <ele>374.8</ele>
        <time>2022-12-07T13:44:24Z</time>
      </trkpt>
      <trkpt lat="43.56111" lon="6.31425">
        <ele>374.9</ele>
        <time>2022-12-07T13:44:34Z</time>
      </trkpt>
      <trkpt lat="43.56102" lon="6.31425">
        <ele>375</ele>
        <time>2022-12-07T13:44:44Z</time>
      </trkpt>
      <trkpt lat="43.56108" lon="6.31434">
        <ele>375.3</ele>
        <time>2022-12-07T13:47:50Z</time>
      </trkpt>
      <trkpt lat="43.56117" lon="6.3143">
        <ele>374.6</ele>
        <time>2022-12-07T13:49:33Z</time>
      </trkpt>
      <trkpt lat="43.56127" lon="6.31429">
        <ele>375.3</ele>
        <time>2022-12-07T13:49:42Z</time>
      </trkpt>
      <trkpt lat="43.56136" lon="6.31429">
        <ele>375.3</ele>
        <time>2022-12-07T13:49:54Z</time>
      </trkpt>
      <trkpt lat="43.56146" lon="6.31426">
        <ele>375.4</ele>
        <time>2022-12-07T13:50:06Z</time>
      </trkpt>
      <trkpt lat="43.56146" lon="6.31413">
        <ele>375.5</ele>
        <time>2022-12-07T13:50:17Z</time>
      </trkpt>
      <trkpt lat="43.56142" lon="6.31402">
        <ele>374.9</ele>
        <time>2022-12-07T13:50:42Z</time>
      </trkpt>
      <trkpt lat="43.5614" lon="6.3139">
        <ele>374.6</ele>
        <time>2022-12-07T13:50:51Z</time>
      </trkpt>
      <trkpt lat="43.56139" lon="6.31377">
        <ele>374.1</ele>
        <time>2022-12-07T13:51:00Z</time>
      </trkpt>
      <trkpt lat="43.56139" lon="6.31365">
        <ele>374.3</ele>
        <time>2022-12-07T13:51:08Z</time>
      </trkpt>
      <trkpt lat="43.56139" lon="6.31352">
        <ele>374.7</ele>
        <time>2022-12-07T13:52:05Z</time>
      </trkpt>
      <trkpt lat="43.56148" lon="6.31354">
        <ele>375.9</ele>
        <time>2022-12-07T13:52:46Z</time>
      </trkpt>
      <trkpt lat="43.56153" lon="6.31364">
        <ele>377</ele>
        <time>2022-12-07T13:52:54Z</time>
      </trkpt>
      <trkpt lat="43.56157" lon="6.31376">
        <ele>377.5</ele>
        <time>2022-12-07T13:53:02Z</time>
      </trkpt>
      <trkpt lat="43.56162" lon="6.31387">
        <ele>378.1</ele>
        <time>2022-12-07T13:53:09Z</time>
      </trkpt>
      <trkpt lat="43.56167" lon="6.314">
        <ele>378.4</ele>
        <time>2022-12-07T13:53:17Z</time>
      </trkpt>
      <trkpt lat="43.56174" lon="6.31409">
        <ele>379.2</ele>
        <time>2022-12-07T13:53:25Z</time>
      </trkpt>
      <trkpt lat="43.56181" lon="6.31418">
        <ele>380.7</ele>
        <time>2022-12-07T13:53:33Z</time>
      </trkpt>
      <trkpt lat="43.56185" lon="6.3143">
        <ele>382.4</ele>
        <time>2022-12-07T13:53:42Z</time>
      </trkpt>
      <trkpt lat="43.56188" lon="6.31442">
        <ele>383.5</ele>
        <time>2022-12-07T13:53:50Z</time>
      </trkpt>
      <trkpt lat="43.56194" lon="6.31453">
        <ele>384.2</ele>
        <time>2022-12-07T13:53:58Z</time>
      </trkpt>
      <trkpt lat="43.56201" lon="6.31462">
        <ele>385.2</ele>
        <time>2022-12-07T13:54:06Z</time>
      </trkpt>
      <trkpt lat="43.56208" lon="6.3147">
        <ele>386.4</ele>
        <time>2022-12-07T13:54:14Z</time>
      </trkpt>
      <trkpt lat="43.56217" lon="6.31477">
        <ele>388.1</ele>
        <time>2022-12-07T13:54:23Z</time>
      </trkpt>
      <trkpt lat="43.56225" lon="6.31482">
        <ele>390.1</ele>
        <time>2022-12-07T13:54:31Z</time>
      </trkpt>
      <trkpt lat="43.56234" lon="6.31484">
        <ele>392.2</ele>
        <time>2022-12-07T13:54:52Z</time>
      </trkpt>
      <trkpt lat="43.56241" lon="6.31492">
        <ele>394.3</ele>
        <time>2022-12-07T13:57:31Z</time>
      </trkpt>
      <trkpt lat="43.56244" lon="6.31505">
        <ele>394</ele>
        <time>2022-12-07T13:58:15Z</time>
      </trkpt>
      <trkpt lat="43.56246" lon="6.31518">
        <ele>393.9</ele>
        <time>2022-12-07T13:58:23Z</time>
      </trkpt>
      <trkpt lat="43.56248" lon="6.3153">
        <ele>393.8</ele>
        <time>2022-12-07T13:58:31Z</time>
      </trkpt>
      <trkpt lat="43.56251" lon="6.31543">
        <ele>393.6</ele>
        <time>2022-12-07T13:58:39Z</time>
      </trkpt>
      <trkpt lat="43.56255" lon="6.31554">
        <ele>393.5</ele>
        <time>2022-12-07T13:58:47Z</time>
      </trkpt>
      <trkpt lat="43.5626" lon="6.31566">
        <ele>393.8</ele>
        <time>2022-12-07T13:58:55Z</time>
      </trkpt>
      <trkpt lat="43.56265" lon="6.31577">
        <ele>394.2</ele>
        <time>2022-12-07T13:59:03Z</time>
      </trkpt>
      <trkpt lat="43.56271" lon="6.31587">
        <ele>395.2</ele>
        <time>2022-12-07T13:59:11Z</time>
      </trkpt>
      <trkpt lat="43.56276" lon="6.31598">
        <ele>395.4</ele>
        <time>2022-12-07T13:59:18Z</time>
      </trkpt>
      <trkpt lat="43.56282" lon="6.31607">
        <ele>395.4</ele>
        <time>2022-12-07T13:59:25Z</time>
      </trkpt>
      <trkpt lat="43.56291" lon="6.31608">
        <ele>395.5</ele>
        <time>2022-12-07T13:59:37Z</time>
      </trkpt>
      <trkpt lat="43.563" lon="6.31607">
        <ele>395.7</ele>
        <time>2022-12-07T14:00:14Z</time>
      </trkpt>
      <trkpt lat="43.56291" lon="6.31612">
        <ele>395.2</ele>
        <time>2022-12-07T14:00:58Z</time>
      </trkpt>
      <trkpt lat="43.56288" lon="6.31624">
        <ele>393.6</ele>
        <time>2022-12-07T14:01:09Z</time>
      </trkpt>
      <trkpt lat="43.56291" lon="6.31636">
        <ele>395.6</ele>
        <time>2022-12-07T14:01:17Z</time>
      </trkpt>
      <trkpt lat="43.56294" lon="6.31649">
        <ele>396.3</ele>
        <time>2022-12-07T14:01:27Z</time>
      </trkpt>
      <trkpt lat="43.56299" lon="6.3166">
        <ele>396.9</ele>
        <time>2022-12-07T14:01:36Z</time>
      </trkpt>
      <trkpt lat="43.56308" lon="6.31659">
        <ele>397.9</ele>
        <time>2022-12-07T14:01:45Z</time>
      </trkpt>
      <trkpt lat="43.56317" lon="6.31655">
        <ele>399.8</ele>
        <time>2022-12-07T14:01:56Z</time>
      </trkpt>
      <trkpt lat="43.56325" lon="6.31648">
        <ele>401.5</ele>
        <time>2022-12-07T14:02:06Z</time>
      </trkpt>
      <trkpt lat="43.56332" lon="6.3164">
        <ele>403.8</ele>
        <time>2022-12-07T14:02:18Z</time>
      </trkpt>
      <trkpt lat="43.56341" lon="6.31634">
        <ele>405.8</ele>
        <time>2022-12-07T14:02:29Z</time>
      </trkpt>
      <trkpt lat="43.56348" lon="6.31625">
        <ele>406.3</ele>
        <time>2022-12-07T14:02:45Z</time>
      </trkpt>
      <trkpt lat="43.56352" lon="6.31613">
        <ele>405.2</ele>
        <time>2022-12-07T14:02:58Z</time>
      </trkpt>
      <trkpt lat="43.56359" lon="6.31604">
        <ele>404.8</ele>
        <time>2022-12-07T14:03:07Z</time>
      </trkpt>
      <trkpt lat="43.56366" lon="6.31595">
        <ele>403.8</ele>
        <time>2022-12-07T14:03:16Z</time>
      </trkpt>
      <trkpt lat="43.56375" lon="6.31589">
        <ele>402.9</ele>
        <time>2022-12-07T14:03:26Z</time>
      </trkpt>
      <trkpt lat="43.56385" lon="6.31585">
        <ele>402.2</ele>
        <time>2022-12-07T14:03:35Z</time>
      </trkpt>
      <trkpt lat="43.56394" lon="6.31579">
        <ele>401.3</ele>
        <time>2022-12-07T14:03:44Z</time>
      </trkpt>
      <trkpt lat="43.56403" lon="6.31576">
        <ele>400.5</ele>
        <time>2022-12-07T14:03:52Z</time>
      </trkpt>
      <trkpt lat="43.56411" lon="6.3157">
        <ele>399.9</ele>
        <time>2022-12-07T14:04:00Z</time>
      </trkpt>
      <trkpt lat="43.56417" lon="6.3156">
        <ele>399.4</ele>
        <time>2022-12-07T14:04:13Z</time>
      </trkpt>
      <trkpt lat="43.56424" lon="6.3155">
        <ele>399.8</ele>
        <time>2022-12-07T14:04:21Z</time>
      </trkpt>
      <trkpt lat="43.56431" lon="6.31538">
        <ele>400.2</ele>
        <time>2022-12-07T14:04:31Z</time>
      </trkpt>
      <trkpt lat="43.56436" lon="6.31528">
        <ele>400.6</ele>
        <time>2022-12-07T14:04:40Z</time>
      </trkpt>
      <trkpt lat="43.56442" lon="6.31518">
        <ele>400.8</ele>
        <time>2022-12-07T14:04:48Z</time>
      </trkpt>
      <trkpt lat="43.56447" lon="6.31507">
        <ele>401.6</ele>
        <time>2022-12-07T14:04:56Z</time>
      </trkpt>
      <trkpt lat="43.5645" lon="6.31495">
        <ele>402.7</ele>
        <time>2022-12-07T14:05:07Z</time>
      </trkpt>
      <trkpt lat="43.56454" lon="6.31483">
        <ele>404.4</ele>
        <time>2022-12-07T14:05:17Z</time>
      </trkpt>
      <trkpt lat="43.56454" lon="6.31471">
        <ele>406</ele>
        <time>2022-12-07T14:05:29Z</time>
      </trkpt>
      <trkpt lat="43.56459" lon="6.31459">
        <ele>407.5</ele>
        <time>2022-12-07T14:05:40Z</time>
      </trkpt>
      <trkpt lat="43.56467" lon="6.31464">
        <ele>407.6</ele>
        <time>2022-12-07T14:05:51Z</time>
      </trkpt>
      <trkpt lat="43.56477" lon="6.31467">
        <ele>408.1</ele>
        <time>2022-12-07T14:06:03Z</time>
      </trkpt>
      <trkpt lat="43.56485" lon="6.31463">
        <ele>409.1</ele>
        <time>2022-12-07T14:06:12Z</time>
      </trkpt>
      <trkpt lat="43.56491" lon="6.31453">
        <ele>410</ele>
        <time>2022-12-07T14:06:21Z</time>
      </trkpt>
      <trkpt lat="43.56492" lon="6.31439">
        <ele>411</ele>
        <time>2022-12-07T14:06:31Z</time>
      </trkpt>
      <trkpt lat="43.56495" lon="6.31427">
        <ele>411.5</ele>
        <time>2022-12-07T14:06:40Z</time>
      </trkpt>
      <trkpt lat="43.56499" lon="6.31415">
        <ele>412.4</ele>
        <time>2022-12-07T14:06:50Z</time>
      </trkpt>
      <trkpt lat="43.56503" lon="6.31403">
        <ele>412.5</ele>
        <time>2022-12-07T14:07:00Z</time>
      </trkpt>
      <trkpt lat="43.5651" lon="6.31393">
        <ele>411.6</ele>
        <time>2022-12-07T14:07:09Z</time>
      </trkpt>
      <trkpt lat="43.56516" lon="6.31384">
        <ele>411.7</ele>
        <time>2022-12-07T14:07:17Z</time>
      </trkpt>
      <trkpt lat="43.56524" lon="6.31376">
        <ele>411.9</ele>
        <time>2022-12-07T14:07:27Z</time>
      </trkpt>
      <trkpt lat="43.56532" lon="6.3137">
        <ele>411.9</ele>
        <time>2022-12-07T14:07:35Z</time>
      </trkpt>
      <trkpt lat="43.56539" lon="6.31362">
        <ele>412.4</ele>
        <time>2022-12-07T14:07:44Z</time>
      </trkpt>
      <trkpt lat="43.56547" lon="6.31353">
        <ele>413</ele>
        <time>2022-12-07T14:07:53Z</time>
      </trkpt>
      <trkpt lat="43.56555" lon="6.31346">
        <ele>414.3</ele>
        <time>2022-12-07T14:08:03Z</time>
      </trkpt>
      <trkpt lat="43.56564" lon="6.31341">
        <ele>415.6</ele>
        <time>2022-12-07T14:08:13Z</time>
      </trkpt>
      <trkpt lat="43.56573" lon="6.31338">
        <ele>416.6</ele>
        <time>2022-12-07T14:08:22Z</time>
      </trkpt>
      <trkpt lat="43.5658" lon="6.3133">
        <ele>417</ele>
        <time>2022-12-07T14:08:31Z</time>
      </trkpt>
      <trkpt lat="43.56587" lon="6.31321">
        <ele>417</ele>
        <time>2022-12-07T14:08:40Z</time>
      </trkpt>
      <trkpt lat="43.56592" lon="6.3131">
        <ele>417.1</ele>
        <time>2022-12-07T14:08:49Z</time>
      </trkpt>
      <trkpt lat="43.56599" lon="6.31301">
        <ele>417.4</ele>
        <time>2022-12-07T14:08:57Z</time>
      </trkpt>
      <trkpt lat="43.56606" lon="6.31295">
        <ele>417.3</ele>
        <time>2022-12-07T14:09:07Z</time>
      </trkpt>
      <trkpt lat="43.56616" lon="6.3129">
        <ele>417.6</ele>
        <time>2022-12-07T14:09:16Z</time>
      </trkpt>
      <trkpt lat="43.56625" lon="6.31285">
        <ele>417.8</ele>
        <time>2022-12-07T14:09:24Z</time>
      </trkpt>
      <trkpt lat="43.56616" lon="6.31286">
        <ele>417.5</ele>
        <time>2022-12-07T14:10:50Z</time>
      </trkpt>
      <trkpt lat="43.56625" lon="6.31285">
        <ele>417.8</ele>
        <time>2022-12-07T14:11:05Z</time>
      </trkpt>
      <trkpt lat="43.56634" lon="6.31284">
        <ele>417.9</ele>
        <time>2022-12-07T14:11:15Z</time>
      </trkpt>
      <trkpt lat="43.56643" lon="6.31281">
        <ele>417.7</ele>
        <time>2022-12-07T14:11:25Z</time>
      </trkpt>
      <trkpt lat="43.56652" lon="6.31278">
        <ele>418.1</ele>
        <time>2022-12-07T14:11:34Z</time>
      </trkpt>
      <trkpt lat="43.56661" lon="6.31274">
        <ele>418.7</ele>
        <time>2022-12-07T14:11:44Z</time>
      </trkpt>
      <trkpt lat="43.5667" lon="6.31272">
        <ele>418.2</ele>
        <time>2022-12-07T14:11:54Z</time>
      </trkpt>
      <trkpt lat="43.56679" lon="6.3127">
        <ele>418</ele>
        <time>2022-12-07T14:12:02Z</time>
      </trkpt>
      <trkpt lat="43.56689" lon="6.31269">
        <ele>417.2</ele>
        <time>2022-12-07T14:12:11Z</time>
      </trkpt>
      <trkpt lat="43.56698" lon="6.31264">
        <ele>416.5</ele>
        <time>2022-12-07T14:12:20Z</time>
      </trkpt>
      <trkpt lat="43.56705" lon="6.31253">
        <ele>416.2</ele>
        <time>2022-12-07T14:12:29Z</time>
      </trkpt>
      <trkpt lat="43.56713" lon="6.31244">
        <ele>416.2</ele>
        <time>2022-12-07T14:12:38Z</time>
      </trkpt>
      <trkpt lat="43.56722" lon="6.3124">
        <ele>416.4</ele>
        <time>2022-12-07T14:12:47Z</time>
      </trkpt>
      <trkpt lat="43.56731" lon="6.31236">
        <ele>416.6</ele>
        <time>2022-12-07T14:12:56Z</time>
      </trkpt>
      <trkpt lat="43.5674" lon="6.31232">
        <ele>417.3</ele>
        <time>2022-12-07T14:13:04Z</time>
      </trkpt>
      <trkpt lat="43.56747" lon="6.31224">
        <ele>418</ele>
        <time>2022-12-07T14:13:12Z</time>
      </trkpt>
      <trkpt lat="43.56755" lon="6.31218">
        <ele>418.6</ele>
        <time>2022-12-07T14:13:20Z</time>
      </trkpt>
      <trkpt lat="43.56763" lon="6.31209">
        <ele>418.8</ele>
        <time>2022-12-07T14:13:29Z</time>
      </trkpt>
      <trkpt lat="43.56767" lon="6.31196">
        <ele>419.1</ele>
        <time>2022-12-07T14:13:37Z</time>
      </trkpt>
      <trkpt lat="43.56769" lon="6.31184">
        <ele>419.9</ele>
        <time>2022-12-07T14:13:47Z</time>
      </trkpt>
      <trkpt lat="43.56776" lon="6.31175">
        <ele>420.2</ele>
        <time>2022-12-07T14:15:57Z</time>
      </trkpt>
      <trkpt lat="43.56786" lon="6.31174">
        <ele>420.5</ele>
        <time>2022-12-07T14:16:07Z</time>
      </trkpt>
      <trkpt lat="43.56795" lon="6.31173">
        <ele>420.8</ele>
        <time>2022-12-07T14:16:19Z</time>
      </trkpt>
      <trkpt lat="43.56805" lon="6.31172">
        <ele>421.1</ele>
        <time>2022-12-07T14:16:28Z</time>
      </trkpt>
      <trkpt lat="43.56811" lon="6.31162">
        <ele>421.6</ele>
        <time>2022-12-07T14:16:38Z</time>
      </trkpt>
      <trkpt lat="43.56816" lon="6.31152">
        <ele>422</ele>
        <time>2022-12-07T14:16:47Z</time>
      </trkpt>
      <trkpt lat="43.56823" lon="6.31144">
        <ele>422.3</ele>
        <time>2022-12-07T14:16:55Z</time>
      </trkpt>
      <trkpt lat="43.5683" lon="6.31137">
        <ele>422.4</ele>
        <time>2022-12-07T14:17:03Z</time>
      </trkpt>
      <trkpt lat="43.56836" lon="6.31127">
        <ele>423</ele>
        <time>2022-12-07T14:17:11Z</time>
      </trkpt>
      <trkpt lat="43.56839" lon="6.31115">
        <ele>423.3</ele>
        <time>2022-12-07T14:17:20Z</time>
      </trkpt>
      <trkpt lat="43.56843" lon="6.31103">
        <ele>423.3</ele>
        <time>2022-12-07T14:17:29Z</time>
      </trkpt>
      <trkpt lat="43.56846" lon="6.3109">
        <ele>423.7</ele>
        <time>2022-12-07T14:17:37Z</time>
      </trkpt>
      <trkpt lat="43.5685" lon="6.31079">
        <ele>424.7</ele>
        <time>2022-12-07T14:17:48Z</time>
      </trkpt>
      <trkpt lat="43.56857" lon="6.3107">
        <ele>425.5</ele>
        <time>2022-12-07T14:17:58Z</time>
      </trkpt>
      <trkpt lat="43.56863" lon="6.31061">
        <ele>426.6</ele>
        <time>2022-12-07T14:18:08Z</time>
      </trkpt>
      <trkpt lat="43.56869" lon="6.3105">
        <ele>427.5</ele>
        <time>2022-12-07T14:18:19Z</time>
      </trkpt>
      <trkpt lat="43.56877" lon="6.31042">
        <ele>428.1</ele>
        <time>2022-12-07T14:18:31Z</time>
      </trkpt>
      <trkpt lat="43.56884" lon="6.31033">
        <ele>429</ele>
        <time>2022-12-07T14:18:41Z</time>
      </trkpt>
      <trkpt lat="43.56887" lon="6.31021">
        <ele>430.2</ele>
        <time>2022-12-07T14:18:52Z</time>
      </trkpt>
      <trkpt lat="43.5689" lon="6.31008">
        <ele>431.2</ele>
        <time>2022-12-07T14:19:02Z</time>
      </trkpt>
      <trkpt lat="43.56894" lon="6.30997">
        <ele>432.1</ele>
        <time>2022-12-07T14:19:12Z</time>
      </trkpt>
      <trkpt lat="43.569" lon="6.30987">
        <ele>432.1</ele>
        <time>2022-12-07T14:19:22Z</time>
      </trkpt>
      <trkpt lat="43.56907" lon="6.30977">
        <ele>431.9</ele>
        <time>2022-12-07T14:19:32Z</time>
      </trkpt>
      <trkpt lat="43.56912" lon="6.30965">
        <ele>432.4</ele>
        <time>2022-12-07T14:19:44Z</time>
      </trkpt>
      <trkpt lat="43.56919" lon="6.30957">
        <ele>432.5</ele>
        <time>2022-12-07T14:19:51Z</time>
      </trkpt>
      <trkpt lat="43.56921" lon="6.30944">
        <ele>433.4</ele>
        <time>2022-12-07T14:20:01Z</time>
      </trkpt>
      <trkpt lat="43.56927" lon="6.30932">
        <ele>433.8</ele>
        <time>2022-12-07T14:20:10Z</time>
      </trkpt>
      <trkpt lat="43.56932" lon="6.30922">
        <ele>433.9</ele>
        <time>2022-12-07T14:20:18Z</time>
      </trkpt>
      <trkpt lat="43.56938" lon="6.30912">
        <ele>434.1</ele>
        <time>2022-12-07T14:20:27Z</time>
      </trkpt>
      <trkpt lat="43.56945" lon="6.30903">
        <ele>434.9</ele>
        <time>2022-12-07T14:20:37Z</time>
      </trkpt>
      <trkpt lat="43.56951" lon="6.30892">
        <ele>435.2</ele>
        <time>2022-12-07T14:20:46Z</time>
      </trkpt>
      <trkpt lat="43.56957" lon="6.30883">
        <ele>435.1</ele>
        <time>2022-12-07T14:20:54Z</time>
      </trkpt>
      <trkpt lat="43.56961" lon="6.3087">
        <ele>435.3</ele>
        <time>2022-12-07T14:21:04Z</time>
      </trkpt>
      <trkpt lat="43.56956" lon="6.30859">
        <ele>435.5</ele>
        <time>2022-12-07T14:21:11Z</time>
      </trkpt>
      <trkpt lat="43.5695" lon="6.30849">
        <ele>435.9</ele>
        <time>2022-12-07T14:21:21Z</time>
      </trkpt>
      <trkpt lat="43.56943" lon="6.3084">
        <ele>436.3</ele>
        <time>2022-12-07T14:21:29Z</time>
      </trkpt>
      <trkpt lat="43.56936" lon="6.30831">
        <ele>436.7</ele>
        <time>2022-12-07T14:21:38Z</time>
      </trkpt>
      <trkpt lat="43.5693" lon="6.30822">
        <ele>437.1</ele>
        <time>2022-12-07T14:21:47Z</time>
      </trkpt>
      <trkpt lat="43.56927" lon="6.3081">
        <ele>437.1</ele>
        <time>2022-12-07T14:21:57Z</time>
      </trkpt>
      <trkpt lat="43.56926" lon="6.30797">
        <ele>437.1</ele>
        <time>2022-12-07T14:22:07Z</time>
      </trkpt>
      <trkpt lat="43.56924" lon="6.30784">
        <ele>437.9</ele>
        <time>2022-12-07T14:22:16Z</time>
      </trkpt>
      <trkpt lat="43.56927" lon="6.30771">
        <ele>438.4</ele>
        <time>2022-12-07T14:22:26Z</time>
      </trkpt>
      <trkpt lat="43.56932" lon="6.30761">
        <ele>439.3</ele>
        <time>2022-12-07T14:22:36Z</time>
      </trkpt>
      <trkpt lat="43.56937" lon="6.3075">
        <ele>439.7</ele>
        <time>2022-12-07T14:22:45Z</time>
      </trkpt>
      <trkpt lat="43.56939" lon="6.30737">
        <ele>439.7</ele>
        <time>2022-12-07T14:22:54Z</time>
      </trkpt>
      <trkpt lat="43.56946" lon="6.30729">
        <ele>439.9</ele>
        <time>2022-12-07T14:23:46Z</time>
      </trkpt>
      <trkpt lat="43.56956" lon="6.30729">
        <ele>439.5</ele>
        <time>2022-12-07T14:23:58Z</time>
      </trkpt>
      <trkpt lat="43.56964" lon="6.30722">
        <ele>438.8</ele>
        <time>2022-12-07T14:24:09Z</time>
      </trkpt>
      <trkpt lat="43.56973" lon="6.30717">
        <ele>439.1</ele>
        <time>2022-12-07T14:24:19Z</time>
      </trkpt>
      <trkpt lat="43.56981" lon="6.3071">
        <ele>438.7</ele>
        <time>2022-12-07T14:24:29Z</time>
      </trkpt>
      <trkpt lat="43.56988" lon="6.307">
        <ele>438.8</ele>
        <time>2022-12-07T14:24:38Z</time>
      </trkpt>
      <trkpt lat="43.56994" lon="6.3069">
        <ele>438.7</ele>
        <time>2022-12-07T14:24:48Z</time>
      </trkpt>
      <trkpt lat="43.57001" lon="6.3068">
        <ele>438.9</ele>
        <time>2022-12-07T14:24:58Z</time>
      </trkpt>
      <trkpt lat="43.57008" lon="6.30672">
        <ele>439.1</ele>
        <time>2022-12-07T14:25:07Z</time>
      </trkpt>
      <trkpt lat="43.57014" lon="6.30663">
        <ele>438.9</ele>
        <time>2022-12-07T14:25:16Z</time>
      </trkpt>
      <trkpt lat="43.5702" lon="6.30652">
        <ele>438.5</ele>
        <time>2022-12-07T14:25:25Z</time>
      </trkpt>
      <trkpt lat="43.57025" lon="6.3064">
        <ele>439.7</ele>
        <time>2022-12-07T14:25:34Z</time>
      </trkpt>
      <trkpt lat="43.57028" lon="6.30628">
        <ele>439.6</ele>
        <time>2022-12-07T14:25:43Z</time>
      </trkpt>
      <trkpt lat="43.57035" lon="6.30617">
        <ele>439.3</ele>
        <time>2022-12-07T14:25:52Z</time>
      </trkpt>
      <trkpt lat="43.57037" lon="6.30605">
        <ele>439.3</ele>
        <time>2022-12-07T14:26:00Z</time>
      </trkpt>
      <trkpt lat="43.57042" lon="6.30595">
        <ele>438.9</ele>
        <time>2022-12-07T14:26:08Z</time>
      </trkpt>
      <trkpt lat="43.57049" lon="6.30586">
        <ele>439</ele>
        <time>2022-12-07T14:26:17Z</time>
      </trkpt>
      <trkpt lat="43.57057" lon="6.30578">
        <ele>438.9</ele>
        <time>2022-12-07T14:26:27Z</time>
      </trkpt>
      <trkpt lat="43.57065" lon="6.30571">
        <ele>439.2</ele>
        <time>2022-12-07T14:26:37Z</time>
      </trkpt>
      <trkpt lat="43.57073" lon="6.30566">
        <ele>439.4</ele>
        <time>2022-12-07T14:26:47Z</time>
      </trkpt>
      <trkpt lat="43.57079" lon="6.30556">
        <ele>440.4</ele>
        <time>2022-12-07T14:26:59Z</time>
      </trkpt>
      <trkpt lat="43.57084" lon="6.30544">
        <ele>441.2</ele>
        <time>2022-12-07T14:27:10Z</time>
      </trkpt>
      <trkpt lat="43.57092" lon="6.3054">
        <ele>441.8</ele>
        <time>2022-12-07T14:27:24Z</time>
      </trkpt>
      <trkpt lat="43.57102" lon="6.30539">
        <ele>443.1</ele>
        <time>2022-12-07T14:27:56Z</time>
      </trkpt>
      <trkpt lat="43.57112" lon="6.30542">
        <ele>443.9</ele>
        <time>2022-12-07T14:28:07Z</time>
      </trkpt>
      <trkpt lat="43.57116" lon="6.30531">
        <ele>444.1</ele>
        <time>2022-12-07T14:28:19Z</time>
      </trkpt>
      <trkpt lat="43.57119" lon="6.30519">
        <ele>444.2</ele>
        <time>2022-12-07T14:28:29Z</time>
      </trkpt>
      <trkpt lat="43.57125" lon="6.30508">
        <ele>444.4</ele>
        <time>2022-12-07T14:28:37Z</time>
      </trkpt>
      <trkpt lat="43.5713" lon="6.30496">
        <ele>444.8</ele>
        <time>2022-12-07T14:28:46Z</time>
      </trkpt>
      <trkpt lat="43.57132" lon="6.30483">
        <ele>445.3</ele>
        <time>2022-12-07T14:28:56Z</time>
      </trkpt>
      <trkpt lat="43.57132" lon="6.3047">
        <ele>445</ele>
        <time>2022-12-07T14:29:04Z</time>
      </trkpt>
      <trkpt lat="43.57132" lon="6.30457">
        <ele>444.5</ele>
        <time>2022-12-07T14:29:11Z</time>
      </trkpt>
      <trkpt lat="43.57136" lon="6.30445">
        <ele>444.3</ele>
        <time>2022-12-07T14:29:24Z</time>
      </trkpt>
      <trkpt lat="43.57144" lon="6.30452">
        <ele>442.8</ele>
        <time>2022-12-07T14:29:41Z</time>
      </trkpt>
      <trkpt lat="43.57148" lon="6.30462">
        <ele>442.4</ele>
        <time>2022-12-07T14:29:51Z</time>
      </trkpt>
      <trkpt lat="43.57155" lon="6.30473">
        <ele>441.5</ele>
        <time>2022-12-07T14:30:01Z</time>
      </trkpt>
      <trkpt lat="43.5716" lon="6.30483">
        <ele>439.9</ele>
        <time>2022-12-07T14:30:13Z</time>
      </trkpt>
      <trkpt lat="43.57167" lon="6.30493">
        <ele>438.6</ele>
        <time>2022-12-07T14:30:22Z</time>
      </trkpt>
      <trkpt lat="43.57173" lon="6.30503">
        <ele>436.9</ele>
        <time>2022-12-07T14:30:33Z</time>
      </trkpt>
      <trkpt lat="43.5718" lon="6.30512">
        <ele>435.8</ele>
        <time>2022-12-07T14:30:42Z</time>
      </trkpt>
      <trkpt lat="43.57186" lon="6.30523">
        <ele>434.1</ele>
        <time>2022-12-07T14:30:52Z</time>
      </trkpt>
      <trkpt lat="43.57193" lon="6.3053">
        <ele>432.4</ele>
        <time>2022-12-07T14:31:02Z</time>
      </trkpt>
      <trkpt lat="43.57201" lon="6.30538">
        <ele>430.9</ele>
        <time>2022-12-07T14:31:12Z</time>
      </trkpt>
      <trkpt lat="43.57209" lon="6.30547">
        <ele>430.1</ele>
        <time>2022-12-07T14:31:21Z</time>
      </trkpt>
      <trkpt lat="43.57216" lon="6.30553">
        <ele>428.8</ele>
        <time>2022-12-07T14:31:30Z</time>
      </trkpt>
      <trkpt lat="43.57225" lon="6.30558">
        <ele>428</ele>
        <time>2022-12-07T14:31:40Z</time>
      </trkpt>
      <trkpt lat="43.57234" lon="6.30562">
        <ele>427.1</ele>
        <time>2022-12-07T14:31:49Z</time>
      </trkpt>
      <trkpt lat="43.57243" lon="6.30568">
        <ele>427</ele>
        <time>2022-12-07T14:31:57Z</time>
      </trkpt>
      <trkpt lat="43.57252" lon="6.30572">
        <ele>426.6</ele>
        <time>2022-12-07T14:32:05Z</time>
      </trkpt>
      <trkpt lat="43.57261" lon="6.30575">
        <ele>425.7</ele>
        <time>2022-12-07T14:32:15Z</time>
      </trkpt>
      <trkpt lat="43.5727" lon="6.3057">
        <ele>425.4</ele>
        <time>2022-12-07T14:32:22Z</time>
      </trkpt>
      <trkpt lat="43.57278" lon="6.30563">
        <ele>425.1</ele>
        <time>2022-12-07T14:32:30Z</time>
      </trkpt>
      <trkpt lat="43.57286" lon="6.30554">
        <ele>424.6</ele>
        <time>2022-12-07T14:32:41Z</time>
      </trkpt>
      <trkpt lat="43.57292" lon="6.30545">
        <ele>424.4</ele>
        <time>2022-12-07T14:33:18Z</time>
      </trkpt>
      <trkpt lat="43.573" lon="6.3054">
        <ele>424.8</ele>
        <time>2022-12-07T14:37:03Z</time>
      </trkpt>
      <trkpt lat="43.5731" lon="6.30542">
        <ele>424.3</ele>
        <time>2022-12-07T14:37:15Z</time>
      </trkpt>
      <trkpt lat="43.57319" lon="6.30539">
        <ele>424</ele>
        <time>2022-12-07T14:37:25Z</time>
      </trkpt>
      <trkpt lat="43.57329" lon="6.3054">
        <ele>424.4</ele>
        <time>2022-12-07T14:37:36Z</time>
      </trkpt>
      <trkpt lat="43.57339" lon="6.3054">
        <ele>425.6</ele>
        <time>2022-12-07T14:37:46Z</time>
      </trkpt>
      <trkpt lat="43.57347" lon="6.30545">
        <ele>426.5</ele>
        <time>2022-12-07T14:37:55Z</time>
      </trkpt>
      <trkpt lat="43.57356" lon="6.30549">
        <ele>426.2</ele>
        <time>2022-12-07T14:38:04Z</time>
      </trkpt>
      <trkpt lat="43.57366" lon="6.30553">
        <ele>424.9</ele>
        <time>2022-12-07T14:38:15Z</time>
      </trkpt>
      <trkpt lat="43.57374" lon="6.30558">
        <ele>423.5</ele>
        <time>2022-12-07T14:38:26Z</time>
      </trkpt>
      <trkpt lat="43.57383" lon="6.3056">
        <ele>422.1</ele>
        <time>2022-12-07T14:38:36Z</time>
      </trkpt>
      <trkpt lat="43.57391" lon="6.30567">
        <ele>421.3</ele>
        <time>2022-12-07T14:38:47Z</time>
      </trkpt>
      <trkpt lat="43.574" lon="6.30571">
        <ele>421</ele>
        <time>2022-12-07T14:39:04Z</time>
      </trkpt>
      <trkpt lat="43.57403" lon="6.30559">
        <ele>422.9</ele>
        <time>2022-12-07T14:39:17Z</time>
      </trkpt>
      <trkpt lat="43.57403" lon="6.30546">
        <ele>425.5</ele>
        <time>2022-12-07T14:39:30Z</time>
      </trkpt>
      <trkpt lat="43.57401" lon="6.30533">
        <ele>427.2</ele>
        <time>2022-12-07T14:39:40Z</time>
      </trkpt>
      <trkpt lat="43.57395" lon="6.30523">
        <ele>427.6</ele>
        <time>2022-12-07T14:39:50Z</time>
      </trkpt>
      <trkpt lat="43.57389" lon="6.30513">
        <ele>427.8</ele>
        <time>2022-12-07T14:39:59Z</time>
      </trkpt>
      <trkpt lat="43.57384" lon="6.30502">
        <ele>427.1</ele>
        <time>2022-12-07T14:40:07Z</time>
      </trkpt>
      <trkpt lat="43.57379" lon="6.30491">
        <ele>428.2</ele>
        <time>2022-12-07T14:40:17Z</time>
      </trkpt>
      <trkpt lat="43.57377" lon="6.30477">
        <ele>429.4</ele>
        <time>2022-12-07T14:40:26Z</time>
      </trkpt>
      <trkpt lat="43.57376" lon="6.30464">
        <ele>431.1</ele>
        <time>2022-12-07T14:40:37Z</time>
      </trkpt>
      <trkpt lat="43.57369" lon="6.30456">
        <ele>431.8</ele>
        <time>2022-12-07T14:44:25Z</time>
      </trkpt>
      <trkpt lat="43.57365" lon="6.30444">
        <ele>431.6</ele>
        <time>2022-12-07T14:44:36Z</time>
      </trkpt>
      <trkpt lat="43.57364" lon="6.30431">
        <ele>431</ele>
        <time>2022-12-07T14:44:53Z</time>
      </trkpt>
      <trkpt lat="43.57363" lon="6.30419">
        <ele>428.9</ele>
        <time>2022-12-07T14:45:14Z</time>
      </trkpt>
      <trkpt lat="43.5736" lon="6.30407">
        <ele>426.1</ele>
        <time>2022-12-07T14:45:47Z</time>
      </trkpt>
      <trkpt lat="43.57356" lon="6.30396">
        <ele>425.8</ele>
        <time>2022-12-07T14:46:08Z</time>
      </trkpt>
      <trkpt lat="43.57347" lon="6.30391">
        <ele>427.1</ele>
        <time>2022-12-07T14:47:35Z</time>
      </trkpt>
      <trkpt lat="43.57342" lon="6.30381">
        <ele>430.2</ele>
        <time>2022-12-07T14:48:34Z</time>
      </trkpt>
      <trkpt lat="43.57341" lon="6.30368">
        <ele>431.1</ele>
        <time>2022-12-07T14:48:56Z</time>
      </trkpt>
      <trkpt lat="43.57335" lon="6.30359">
        <ele>428.8</ele>
        <time>2022-12-07T14:49:29Z</time>
      </trkpt>
      <trkpt lat="43.5733" lon="6.30348">
        <ele>426.6</ele>
        <time>2022-12-07T14:50:54Z</time>
      </trkpt>
      <trkpt lat="43.57324" lon="6.30338">
        <ele>424</ele>
        <time>2022-12-07T14:51:33Z</time>
      </trkpt>
      <trkpt lat="43.57333" lon="6.30332">
        <ele>419</ele>
        <time>2022-12-07T14:52:23Z</time>
      </trkpt>
      <trkpt lat="43.57336" lon="6.3032">
        <ele>415.1</ele>
        <time>2022-12-07T14:53:29Z</time>
      </trkpt>
      <trkpt lat="43.57345" lon="6.30321">
        <ele>414.5</ele>
        <time>2022-12-07T14:58:31Z</time>
      </trkpt>
      <trkpt lat="43.57355" lon="6.3032">
        <ele>414.3</ele>
        <time>2022-12-07T14:58:43Z</time>
      </trkpt>
      <trkpt lat="43.57362" lon="6.30312">
        <ele>413.7</ele>
        <time>2022-12-07T14:58:59Z</time>
      </trkpt>
      <trkpt lat="43.57358" lon="6.30301">
        <ele>412.3</ele>
        <time>2022-12-07T14:59:26Z</time>
      </trkpt>
      <trkpt lat="43.57349" lon="6.30295">
        <ele>410.5</ele>
        <time>2022-12-07T14:59:38Z</time>
      </trkpt>
      <trkpt lat="43.57346" lon="6.30283">
        <ele>407</ele>
        <time>2022-12-07T14:59:58Z</time>
      </trkpt>
      <trkpt lat="43.57338" lon="6.30276">
        <ele>404</ele>
        <time>2022-12-07T15:00:27Z</time>
      </trkpt>
      <trkpt lat="43.5733" lon="6.3027">
        <ele>402.2</ele>
        <time>2022-12-07T15:00:40Z</time>
      </trkpt>
      <trkpt lat="43.57321" lon="6.30273">
        <ele>402.1</ele>
        <time>2022-12-07T15:01:02Z</time>
      </trkpt>
      <trkpt lat="43.57314" lon="6.30264">
        <ele>399.8</ele>
        <time>2022-12-07T15:01:35Z</time>
      </trkpt>
      <trkpt lat="43.5731" lon="6.30253">
        <ele>397.6</ele>
        <time>2022-12-07T15:01:51Z</time>
      </trkpt>
      <trkpt lat="43.57303" lon="6.30243">
        <ele>396</ele>
        <time>2022-12-07T15:02:08Z</time>
      </trkpt>
      <trkpt lat="43.57297" lon="6.30235">
        <ele>394.2</ele>
        <time>2022-12-07T15:02:26Z</time>
      </trkpt>
      <trkpt lat="43.57288" lon="6.30228">
        <ele>393.2</ele>
        <time>2022-12-07T15:02:36Z</time>
      </trkpt>
      <trkpt lat="43.5728" lon="6.30224">
        <ele>392.7</ele>
        <time>2022-12-07T15:02:48Z</time>
      </trkpt>
      <trkpt lat="43.57272" lon="6.30217">
        <ele>392.2</ele>
        <time>2022-12-07T15:02:59Z</time>
      </trkpt>
      <trkpt lat="43.57264" lon="6.30211">
        <ele>392.3</ele>
        <time>2022-12-07T15:03:08Z</time>
      </trkpt>
      <trkpt lat="43.57254" lon="6.30206">
        <ele>391.9</ele>
        <time>2022-12-07T15:03:22Z</time>
      </trkpt>
      <trkpt lat="43.5725" lon="6.30195">
        <ele>390.2</ele>
        <time>2022-12-07T15:03:36Z</time>
      </trkpt>
      <trkpt lat="43.57251" lon="6.30182">
        <ele>387</ele>
        <time>2022-12-07T15:03:55Z</time>
      </trkpt>
      <trkpt lat="43.57255" lon="6.30171">
        <ele>386.2</ele>
        <time>2022-12-07T15:04:28Z</time>
      </trkpt>
      <trkpt lat="43.57255" lon="6.30158">
        <ele>385.7</ele>
        <time>2022-12-07T15:07:11Z</time>
      </trkpt>
      <trkpt lat="43.57255" lon="6.30145">
        <ele>384.5</ele>
        <time>2022-12-07T15:08:00Z</time>
      </trkpt>
      <trkpt lat="43.57251" lon="6.30133">
        <ele>383.5</ele>
        <time>2022-12-07T15:08:10Z</time>
      </trkpt>
      <trkpt lat="43.57247" lon="6.30122">
        <ele>382.1</ele>
        <time>2022-12-07T15:08:19Z</time>
      </trkpt>
      <trkpt lat="43.5724" lon="6.30111">
        <ele>380.1</ele>
        <time>2022-12-07T15:08:30Z</time>
      </trkpt>
      <trkpt lat="43.57231" lon="6.3011">
        <ele>379.5</ele>
        <time>2022-12-07T15:08:48Z</time>
      </trkpt>
      <trkpt lat="43.57231" lon="6.30096">
        <ele>378.5</ele>
        <time>2022-12-07T15:09:11Z</time>
      </trkpt>
      <trkpt lat="43.5723" lon="6.30083">
        <ele>376.9</ele>
        <time>2022-12-07T15:09:22Z</time>
      </trkpt>
      <trkpt lat="43.57226" lon="6.30071">
        <ele>374.9</ele>
        <time>2022-12-07T15:09:33Z</time>
      </trkpt>
      <trkpt lat="43.57222" lon="6.3006">
        <ele>373.1</ele>
        <time>2022-12-07T15:09:42Z</time>
      </trkpt>
      <trkpt lat="43.57218" lon="6.30049">
        <ele>371.1</ele>
        <time>2022-12-07T15:10:02Z</time>
      </trkpt>
      <trkpt lat="43.57219" lon="6.30036">
        <ele>369.1</ele>
        <time>2022-12-07T15:10:11Z</time>
      </trkpt>
      <trkpt lat="43.57222" lon="6.30024">
        <ele>367.8</ele>
        <time>2022-12-07T15:10:22Z</time>
      </trkpt>
      <trkpt lat="43.57227" lon="6.30012">
        <ele>367.5</ele>
        <time>2022-12-07T15:10:33Z</time>
      </trkpt>
      <trkpt lat="43.57233" lon="6.30001">
        <ele>367.3</ele>
        <time>2022-12-07T15:10:41Z</time>
      </trkpt>
      <trkpt lat="43.57238" lon="6.29991">
        <ele>366.9</ele>
        <time>2022-12-07T15:10:51Z</time>
      </trkpt>
      <trkpt lat="43.57244" lon="6.2998">
        <ele>366.7</ele>
        <time>2022-12-07T15:11:00Z</time>
      </trkpt>
      <trkpt lat="43.57248" lon="6.29968">
        <ele>366.1</ele>
        <time>2022-12-07T15:11:09Z</time>
      </trkpt>
      <trkpt lat="43.57251" lon="6.29957">
        <ele>365.3</ele>
        <time>2022-12-07T15:11:19Z</time>
      </trkpt>
      <trkpt lat="43.57253" lon="6.29944">
        <ele>364.3</ele>
        <time>2022-12-07T15:11:30Z</time>
      </trkpt>
      <trkpt lat="43.57255" lon="6.2993">
        <ele>363.9</ele>
        <time>2022-12-07T15:11:39Z</time>
      </trkpt>
      <trkpt lat="43.57261" lon="6.29918">
        <ele>364.2</ele>
        <time>2022-12-07T15:11:45Z</time>
      </trkpt>
      <trkpt lat="43.57265" lon="6.29907">
        <ele>364.2</ele>
        <time>2022-12-07T15:11:52Z</time>
      </trkpt>
      <trkpt lat="43.57261" lon="6.29895">
        <ele>364</ele>
        <time>2022-12-07T15:12:01Z</time>
      </trkpt>
      <trkpt lat="43.57254" lon="6.29885">
        <ele>363.8</ele>
        <time>2022-12-07T15:12:12Z</time>
      </trkpt>
      <trkpt lat="43.57253" lon="6.29872">
        <ele>363.6</ele>
        <time>2022-12-07T15:12:17Z</time>
      </trkpt>
      <trkpt lat="43.57252" lon="6.29859">
        <ele>363.1</ele>
        <time>2022-12-07T15:12:24Z</time>
      </trkpt>
      <trkpt lat="43.57251" lon="6.29846">
        <ele>362.5</ele>
        <time>2022-12-07T15:12:32Z</time>
      </trkpt>
      <trkpt lat="43.57247" lon="6.29834">
        <ele>362.7</ele>
        <time>2022-12-07T15:12:40Z</time>
      </trkpt>
      <trkpt lat="43.57247" lon="6.29821">
        <ele>363.3</ele>
        <time>2022-12-07T15:12:48Z</time>
      </trkpt>
      <trkpt lat="43.57248" lon="6.29808">
        <ele>363.5</ele>
        <time>2022-12-07T15:12:56Z</time>
      </trkpt>
      <trkpt lat="43.57245" lon="6.29795">
        <ele>362.8</ele>
        <time>2022-12-07T15:13:05Z</time>
      </trkpt>
      <trkpt lat="43.57244" lon="6.29782">
        <ele>362.9</ele>
        <time>2022-12-07T15:13:12Z</time>
      </trkpt>
      <trkpt lat="43.57244" lon="6.29768">
        <ele>362.6</ele>
        <time>2022-12-07T15:13:21Z</time>
      </trkpt>
      <trkpt lat="43.57237" lon="6.29759">
        <ele>361.7</ele>
        <time>2022-12-07T15:13:47Z</time>
      </trkpt>
      <trkpt lat="43.57229" lon="6.29767">
        <ele>361</ele>
        <time>2022-12-07T15:15:38Z</time>
      </trkpt>
      <trkpt lat="43.57227" lon="6.29779">
        <ele>357.5</ele>
        <time>2022-12-07T15:16:32Z</time>
      </trkpt>
      <trkpt lat="43.57227" lon="6.29791">
        <ele>355.3</ele>
        <time>2022-12-07T15:16:43Z</time>
      </trkpt>
      <trkpt lat="43.57225" lon="6.29804">
        <ele>354.9</ele>
        <time>2022-12-07T15:17:09Z</time>
      </trkpt>
      <trkpt lat="43.57222" lon="6.29816">
        <ele>354.8</ele>
        <time>2022-12-07T15:17:26Z</time>
      </trkpt>
      <trkpt lat="43.5722" lon="6.29803">
        <ele>356.5</ele>
        <time>2022-12-07T15:17:56Z</time>
      </trkpt>
      <trkpt lat="43.57218" lon="6.29791">
        <ele>358</ele>
        <time>2022-12-07T15:18:06Z</time>
      </trkpt>
      <trkpt lat="43.57212" lon="6.2978">
        <ele>359.3</ele>
        <time>2022-12-07T15:18:23Z</time>
      </trkpt>
      <trkpt lat="43.5721" lon="6.29768">
        <ele>359.5</ele>
        <time>2022-12-07T15:18:33Z</time>
      </trkpt>
      <trkpt lat="43.57208" lon="6.29755">
        <ele>360</ele>
        <time>2022-12-07T15:18:42Z</time>
      </trkpt>
      <trkpt lat="43.57208" lon="6.29741">
        <ele>360.3</ele>
        <time>2022-12-07T15:18:50Z</time>
      </trkpt>
      <trkpt lat="43.57204" lon="6.29729">
        <ele>359.8</ele>
        <time>2022-12-07T15:18:58Z</time>
      </trkpt>
      <trkpt lat="43.57202" lon="6.29717">
        <ele>359.4</ele>
        <time>2022-12-07T15:19:06Z</time>
      </trkpt>
      <trkpt lat="43.57199" lon="6.29705">
        <ele>359.3</ele>
        <time>2022-12-07T15:19:14Z</time>
      </trkpt>
      <trkpt lat="43.57197" lon="6.29692">
        <ele>359.1</ele>
        <time>2022-12-07T15:19:22Z</time>
      </trkpt>
      <trkpt lat="43.57196" lon="6.29679">
        <ele>358.5</ele>
        <time>2022-12-07T15:19:30Z</time>
      </trkpt>
      <trkpt lat="43.57195" lon="6.29665">
        <ele>357.7</ele>
        <time>2022-12-07T15:19:39Z</time>
      </trkpt>
      <trkpt lat="43.57189" lon="6.29655">
        <ele>356.7</ele>
        <time>2022-12-07T15:19:50Z</time>
      </trkpt>
      <trkpt lat="43.57183" lon="6.29646">
        <ele>356.3</ele>
        <time>2022-12-07T15:19:59Z</time>
      </trkpt>
      <trkpt lat="43.57176" lon="6.29636">
        <ele>355.9</ele>
        <time>2022-12-07T15:20:08Z</time>
      </trkpt>
      <trkpt lat="43.57167" lon="6.29637">
        <ele>355.6</ele>
        <time>2022-12-07T15:20:22Z</time>
      </trkpt>
      <trkpt lat="43.57176" lon="6.29636">
        <ele>355</ele>
        <time>2022-12-07T15:20:59Z</time>
      </trkpt>
      <trkpt lat="43.57185" lon="6.29633">
        <ele>355.2</ele>
        <time>2022-12-07T15:21:15Z</time>
      </trkpt>
      <trkpt lat="43.57192" lon="6.29641">
        <ele>353.8</ele>
        <time>2022-12-07T15:22:09Z</time>
      </trkpt>
      <trkpt lat="43.57201" lon="6.29644">
        <ele>349</ele>
        <time>2022-12-07T15:23:13Z</time>
      </trkpt>
      <trkpt lat="43.572" lon="6.29631">
        <ele>348.9</ele>
        <time>2022-12-07T15:23:36Z</time>
      </trkpt>
      <trkpt lat="43.57194" lon="6.2964">
        <ele>349.5</ele>
        <time>2022-12-07T15:25:16Z</time>
      </trkpt>
      <trkpt lat="43.57186" lon="6.29634">
        <ele>354.3</ele>
        <time>2022-12-07T15:26:08Z</time>
      </trkpt>
      <trkpt lat="43.57176" lon="6.29634">
        <ele>354.6</ele>
        <time>2022-12-07T15:26:18Z</time>
      </trkpt>
      <trkpt lat="43.57169" lon="6.29626">
        <ele>355.3</ele>
        <time>2022-12-07T15:26:42Z</time>
      </trkpt>
      <trkpt lat="43.57161" lon="6.29619">
        <ele>355.2</ele>
        <time>2022-12-07T15:27:04Z</time>
      </trkpt>
      <trkpt lat="43.57154" lon="6.2961">
        <ele>355</ele>
        <time>2022-12-07T15:27:17Z</time>
      </trkpt>
      <trkpt lat="43.57147" lon="6.29603">
        <ele>355</ele>
        <time>2022-12-07T15:27:25Z</time>
      </trkpt>
      <trkpt lat="43.5714" lon="6.29593">
        <ele>355.2</ele>
        <time>2022-12-07T15:27:34Z</time>
      </trkpt>
      <trkpt lat="43.57134" lon="6.29584">
        <ele>355.1</ele>
        <time>2022-12-07T15:27:43Z</time>
      </trkpt>
      <trkpt lat="43.57125" lon="6.29578">
        <ele>355.1</ele>
        <time>2022-12-07T15:27:52Z</time>
      </trkpt>
      <trkpt lat="43.57116" lon="6.29575">
        <ele>355.5</ele>
        <time>2022-12-07T15:28:10Z</time>
      </trkpt>
      <trkpt lat="43.57108" lon="6.2958">
        <ele>355.3</ele>
        <time>2022-12-07T15:29:18Z</time>
      </trkpt>
      <trkpt lat="43.57099" lon="6.29584">
        <ele>355.3</ele>
        <time>2022-12-07T15:29:29Z</time>
      </trkpt>
      <trkpt lat="43.57093" lon="6.29595">
        <ele>355.3</ele>
        <time>2022-12-07T15:29:37Z</time>
      </trkpt>
      <trkpt lat="43.57086" lon="6.29604">
        <ele>356.2</ele>
        <time>2022-12-07T15:29:47Z</time>
      </trkpt>
      <trkpt lat="43.5708" lon="6.29612">
        <ele>355.9</ele>
        <time>2022-12-07T15:29:56Z</time>
      </trkpt>
      <trkpt lat="43.57073" lon="6.29622">
        <ele>355.7</ele>
        <time>2022-12-07T15:30:03Z</time>
      </trkpt>
      <trkpt lat="43.57067" lon="6.29633">
        <ele>355.8</ele>
        <time>2022-12-07T15:30:11Z</time>
      </trkpt>
      <trkpt lat="43.57061" lon="6.29643">
        <ele>355.9</ele>
        <time>2022-12-07T15:30:18Z</time>
      </trkpt>
      <trkpt lat="43.57052" lon="6.29647">
        <ele>356.2</ele>
        <time>2022-12-07T15:30:29Z</time>
      </trkpt>
      <trkpt lat="43.57044" lon="6.29639">
        <ele>356.1</ele>
        <time>2022-12-07T15:30:34Z</time>
      </trkpt>
      <trkpt lat="43.57037" lon="6.29629">
        <ele>356</ele>
        <time>2022-12-07T15:30:41Z</time>
      </trkpt>
      <trkpt lat="43.57029" lon="6.29625">
        <ele>356.6</ele>
        <time>2022-12-07T15:30:48Z</time>
      </trkpt>
      <trkpt lat="43.5702" lon="6.29621">
        <ele>357.7</ele>
        <time>2022-12-07T15:30:56Z</time>
      </trkpt>
      <trkpt lat="43.57011" lon="6.29618">
        <ele>358.7</ele>
        <time>2022-12-07T15:31:03Z</time>
      </trkpt>
      <trkpt lat="43.57001" lon="6.29617">
        <ele>359.6</ele>
        <time>2022-12-07T15:31:32Z</time>
      </trkpt>
      <trkpt lat="43.56992" lon="6.29621">
        <ele>357.7</ele>
        <time>2022-12-07T15:31:42Z</time>
      </trkpt>
      <trkpt lat="43.56982" lon="6.29626">
        <ele>356.2</ele>
        <time>2022-12-07T15:31:51Z</time>
      </trkpt>
      <trkpt lat="43.56973" lon="6.29624">
        <ele>354.4</ele>
        <time>2022-12-07T15:32:02Z</time>
      </trkpt>
      <trkpt lat="43.56964" lon="6.29619">
        <ele>354.1</ele>
        <time>2022-12-07T15:32:11Z</time>
      </trkpt>
      <trkpt lat="43.56956" lon="6.29613">
        <ele>354.1</ele>
        <time>2022-12-07T15:32:39Z</time>
      </trkpt>
      <trkpt lat="43.56952" lon="6.29601">
        <ele>353.7</ele>
        <time>2022-12-07T15:35:22Z</time>
      </trkpt>
      <trkpt lat="43.56951" lon="6.29588">
        <ele>353.7</ele>
        <time>2022-12-07T15:35:31Z</time>
      </trkpt>
      <trkpt lat="43.56948" lon="6.29575">
        <ele>353.8</ele>
        <time>2022-12-07T15:35:40Z</time>
      </trkpt>
      <trkpt lat="43.56944" lon="6.29563">
        <ele>353.8</ele>
        <time>2022-12-07T15:35:48Z</time>
      </trkpt>
      <trkpt lat="43.56938" lon="6.29553">
        <ele>353.7</ele>
        <time>2022-12-07T15:35:56Z</time>
      </trkpt>
      <trkpt lat="43.56935" lon="6.29541">
        <ele>353.6</ele>
        <time>2022-12-07T15:36:04Z</time>
      </trkpt>
      <trkpt lat="43.56932" lon="6.29528">
        <ele>353.9</ele>
        <time>2022-12-07T15:36:12Z</time>
      </trkpt>
      <trkpt lat="43.56928" lon="6.29515">
        <ele>354.1</ele>
        <time>2022-12-07T15:36:20Z</time>
      </trkpt>
      <trkpt lat="43.56922" lon="6.29505">
        <ele>354.9</ele>
        <time>2022-12-07T15:36:30Z</time>
      </trkpt>
      <trkpt lat="43.56915" lon="6.29496">
        <ele>356.7</ele>
        <time>2022-12-07T15:36:41Z</time>
      </trkpt>
      <trkpt lat="43.56909" lon="6.29486">
        <ele>357.5</ele>
        <time>2022-12-07T15:36:54Z</time>
      </trkpt>
      <trkpt lat="43.56907" lon="6.29474">
        <ele>356.9</ele>
        <time>2022-12-07T15:37:19Z</time>
      </trkpt>
      <trkpt lat="43.56906" lon="6.29461">
        <ele>356.2</ele>
        <time>2022-12-07T15:37:39Z</time>
      </trkpt>
      <trkpt lat="43.56907" lon="6.29448">
        <ele>355</ele>
        <time>2022-12-07T15:37:51Z</time>
      </trkpt>
      <trkpt lat="43.56907" lon="6.29434">
        <ele>353.5</ele>
        <time>2022-12-07T15:38:01Z</time>
      </trkpt>
      <trkpt lat="43.56911" lon="6.29422">
        <ele>351.7</ele>
        <time>2022-12-07T15:38:12Z</time>
      </trkpt>
      <trkpt lat="43.56918" lon="6.29413">
        <ele>351.8</ele>
        <time>2022-12-07T15:38:22Z</time>
      </trkpt>
      <trkpt lat="43.56919" lon="6.294">
        <ele>351.6</ele>
        <time>2022-12-07T15:38:40Z</time>
      </trkpt>
      <trkpt lat="43.56914" lon="6.2939">
        <ele>350.1</ele>
        <time>2022-12-07T15:38:51Z</time>
      </trkpt>
      <trkpt lat="43.5692" lon="6.29381">
        <ele>349</ele>
        <time>2022-12-07T15:39:02Z</time>
      </trkpt>
      <trkpt lat="43.5693" lon="6.29377">
        <ele>349</ele>
        <time>2022-12-07T15:39:12Z</time>
      </trkpt>
      <trkpt lat="43.56935" lon="6.29367">
        <ele>348</ele>
        <time>2022-12-07T15:39:23Z</time>
      </trkpt>
      <trkpt lat="43.56942" lon="6.29357">
        <ele>346.3</ele>
        <time>2022-12-07T15:39:33Z</time>
      </trkpt>
      <trkpt lat="43.56945" lon="6.29346">
        <ele>345.4</ele>
        <time>2022-12-07T15:39:42Z</time>
      </trkpt>
      <trkpt lat="43.56946" lon="6.29333">
        <ele>343.7</ele>
        <time>2022-12-07T15:39:53Z</time>
      </trkpt>
      <trkpt lat="43.56949" lon="6.29321">
        <ele>341.8</ele>
        <time>2022-12-07T15:40:02Z</time>
      </trkpt>
      <trkpt lat="43.56951" lon="6.29309">
        <ele>339.2</ele>
        <time>2022-12-07T15:40:13Z</time>
      </trkpt>
      <trkpt lat="43.56958" lon="6.29299">
        <ele>336.5</ele>
        <time>2022-12-07T15:40:29Z</time>
      </trkpt>
      <trkpt lat="43.56961" lon="6.29286">
        <ele>334.8</ele>
        <time>2022-12-07T15:40:43Z</time>
      </trkpt>
      <trkpt lat="43.56958" lon="6.29273">
        <ele>334.3</ele>
        <time>2022-12-07T15:40:54Z</time>
      </trkpt>
      <trkpt lat="43.56949" lon="6.29274">
        <ele>332.5</ele>
        <time>2022-12-07T15:41:11Z</time>
      </trkpt>
      <trkpt lat="43.56939" lon="6.29275">
        <ele>331.3</ele>
        <time>2022-12-07T15:41:38Z</time>
      </trkpt>
      <trkpt lat="43.56931" lon="6.29269">
        <ele>331.7</ele>
        <time>2022-12-07T15:43:32Z</time>
      </trkpt>
      <trkpt lat="43.56924" lon="6.2926">
        <ele>332.5</ele>
        <time>2022-12-07T15:47:34Z</time>
      </trkpt>
      <trkpt lat="43.56926" lon="6.29248">
        <ele>332.2</ele>
        <time>2022-12-07T15:47:46Z</time>
      </trkpt>
      <trkpt lat="43.56929" lon="6.29236">
        <ele>331.4</ele>
        <time>2022-12-07T15:47:56Z</time>
      </trkpt>
      <trkpt lat="43.56933" lon="6.29223">
        <ele>330.6</ele>
        <time>2022-12-07T15:48:05Z</time>
      </trkpt>
      <trkpt lat="43.56935" lon="6.2921">
        <ele>329.6</ele>
        <time>2022-12-07T15:48:14Z</time>
      </trkpt>
      <trkpt lat="43.56937" lon="6.29196">
        <ele>328.4</ele>
        <time>2022-12-07T15:48:21Z</time>
      </trkpt>
      <trkpt lat="43.56937" lon="6.29184">
        <ele>327</ele>
        <time>2022-12-07T15:48:29Z</time>
      </trkpt>
      <trkpt lat="43.56931" lon="6.29173">
        <ele>326.7</ele>
        <time>2022-12-07T15:48:37Z</time>
      </trkpt>
      <trkpt lat="43.56925" lon="6.29163">
        <ele>326.4</ele>
        <time>2022-12-07T15:48:45Z</time>
      </trkpt>
      <trkpt lat="43.56917" lon="6.29154">
        <ele>326.2</ele>
        <time>2022-12-07T15:48:55Z</time>
      </trkpt>
      <trkpt lat="43.56909" lon="6.29149">
        <ele>326.3</ele>
        <time>2022-12-07T15:49:04Z</time>
      </trkpt>
      <trkpt lat="43.569" lon="6.29156">
        <ele>327.9</ele>
        <time>2022-12-07T15:49:15Z</time>
      </trkpt>
      <trkpt lat="43.56893" lon="6.29163">
        <ele>328.2</ele>
        <time>2022-12-07T15:49:25Z</time>
      </trkpt>
      <trkpt lat="43.56886" lon="6.29172">
        <ele>331.3</ele>
        <time>2022-12-07T15:49:36Z</time>
      </trkpt>
      <trkpt lat="43.56879" lon="6.2918">
        <ele>332.4</ele>
        <time>2022-12-07T15:49:47Z</time>
      </trkpt>
      <trkpt lat="43.56872" lon="6.2919">
        <ele>334.3</ele>
        <time>2022-12-07T15:49:57Z</time>
      </trkpt>
      <trkpt lat="43.56865" lon="6.29199">
        <ele>334.8</ele>
        <time>2022-12-07T15:50:05Z</time>
      </trkpt>
      <trkpt lat="43.56859" lon="6.29208">
        <ele>335.5</ele>
        <time>2022-12-07T15:50:14Z</time>
      </trkpt>
      <trkpt lat="43.56854" lon="6.2922">
        <ele>336.1</ele>
        <time>2022-12-07T15:50:22Z</time>
      </trkpt>
      <trkpt lat="43.56848" lon="6.29231">
        <ele>335.6</ele>
        <time>2022-12-07T15:50:30Z</time>
      </trkpt>
      <trkpt lat="43.56844" lon="6.29242">
        <ele>336.9</ele>
        <time>2022-12-07T15:50:39Z</time>
      </trkpt>
      <trkpt lat="43.56839" lon="6.29253">
        <ele>337.7</ele>
        <time>2022-12-07T15:50:49Z</time>
      </trkpt>
      <trkpt lat="43.56832" lon="6.29264">
        <ele>338.7</ele>
        <time>2022-12-07T15:50:57Z</time>
      </trkpt>
      <trkpt lat="43.56824" lon="6.29272">
        <ele>338.3</ele>
        <time>2022-12-07T15:51:07Z</time>
      </trkpt>
      <trkpt lat="43.56815" lon="6.29274">
        <ele>336.2</ele>
        <time>2022-12-07T15:51:18Z</time>
      </trkpt>
      <trkpt lat="43.56809" lon="6.29284">
        <ele>335.7</ele>
        <time>2022-12-07T15:51:26Z</time>
      </trkpt>
      <trkpt lat="43.56804" lon="6.29296">
        <ele>335.7</ele>
        <time>2022-12-07T15:51:34Z</time>
      </trkpt>
      <trkpt lat="43.56799" lon="6.29307">
        <ele>335.4</ele>
        <time>2022-12-07T15:51:42Z</time>
      </trkpt>
      <trkpt lat="43.56793" lon="6.29317">
        <ele>335.2</ele>
        <time>2022-12-07T15:51:50Z</time>
      </trkpt>
      <trkpt lat="43.56787" lon="6.29328">
        <ele>335</ele>
        <time>2022-12-07T15:52:00Z</time>
      </trkpt>
      <trkpt lat="43.5678" lon="6.29335">
        <ele>335</ele>
        <time>2022-12-07T15:52:09Z</time>
      </trkpt>
      <trkpt lat="43.56772" lon="6.29341">
        <ele>333.7</ele>
        <time>2022-12-07T15:52:18Z</time>
      </trkpt>
      <trkpt lat="43.56763" lon="6.29348">
        <ele>333</ele>
        <time>2022-12-07T15:52:27Z</time>
      </trkpt>
      <trkpt lat="43.56755" lon="6.29354">
        <ele>331.7</ele>
        <time>2022-12-07T15:52:37Z</time>
      </trkpt>
      <trkpt lat="43.56748" lon="6.29345">
        <ele>329.9</ele>
        <time>2022-12-07T15:52:48Z</time>
      </trkpt>
      <trkpt lat="43.56739" lon="6.29342">
        <ele>329.2</ele>
        <time>2022-12-07T15:52:58Z</time>
      </trkpt>
      <trkpt lat="43.5673" lon="6.29345">
        <ele>329.2</ele>
        <time>2022-12-07T15:53:08Z</time>
      </trkpt>
      <trkpt lat="43.56721" lon="6.29349">
        <ele>329.1</ele>
        <time>2022-12-07T15:53:23Z</time>
      </trkpt>
      <trkpt lat="43.56713" lon="6.29356">
        <ele>329.2</ele>
        <time>2022-12-07T15:53:32Z</time>
      </trkpt>
      <trkpt lat="43.56706" lon="6.29366">
        <ele>328.8</ele>
        <time>2022-12-07T15:53:41Z</time>
      </trkpt>
      <trkpt lat="43.56699" lon="6.29374">
        <ele>328.6</ele>
        <time>2022-12-07T15:53:49Z</time>
      </trkpt>
      <trkpt lat="43.56691" lon="6.29382">
        <ele>328.3</ele>
        <time>2022-12-07T15:53:57Z</time>
      </trkpt>
      <trkpt lat="43.56682" lon="6.29383">
        <ele>327.5</ele>
        <time>2022-12-07T15:55:12Z</time>
      </trkpt>
      <trkpt lat="43.56672" lon="6.29385">
        <ele>326.2</ele>
        <time>2022-12-07T15:55:23Z</time>
      </trkpt>
      <trkpt lat="43.56663" lon="6.29387">
        <ele>324.5</ele>
        <time>2022-12-07T15:55:32Z</time>
      </trkpt>
      <trkpt lat="43.56653" lon="6.29387">
        <ele>323.1</ele>
        <time>2022-12-07T15:55:45Z</time>
      </trkpt>
      <trkpt lat="43.56643" lon="6.29385">
        <ele>322.2</ele>
        <time>2022-12-07T15:55:53Z</time>
      </trkpt>
      <trkpt lat="43.56634" lon="6.2938">
        <ele>321.7</ele>
        <time>2022-12-07T15:56:01Z</time>
      </trkpt>
      <trkpt lat="43.56627" lon="6.29373">
        <ele>321.4</ele>
        <time>2022-12-07T15:56:08Z</time>
      </trkpt>
      <trkpt lat="43.56619" lon="6.29366">
        <ele>320.3</ele>
        <time>2022-12-07T15:56:16Z</time>
      </trkpt>
      <trkpt lat="43.56609" lon="6.2936">
        <ele>318.9</ele>
        <time>2022-12-07T15:56:26Z</time>
      </trkpt>
      <trkpt lat="43.566" lon="6.29355">
        <ele>318.2</ele>
        <time>2022-12-07T15:56:34Z</time>
      </trkpt>
      <trkpt lat="43.56591" lon="6.29351">
        <ele>317.8</ele>
        <time>2022-12-07T15:56:42Z</time>
      </trkpt>
      <trkpt lat="43.56582" lon="6.29347">
        <ele>317.4</ele>
        <time>2022-12-07T15:56:50Z</time>
      </trkpt>
      <trkpt lat="43.56573" lon="6.29343">
        <ele>316.7</ele>
        <time>2022-12-07T15:56:58Z</time>
      </trkpt>
      <trkpt lat="43.56568" lon="6.29345">
        <ele>316.5</ele>
        <time>2022-12-07T15:57:03Z</time>
      </trkpt>
    </trkseg>
  </trk>
</gpx>